Observation data for Tahoka on 08/09/2020      Previous  Date  Next       Current Mesonet Observations  Soil Data  Daily Summary Page  Observations in Plain Language
KTAS 090500Z 17011KT 27/14 A301 RMK A01 T02670140  RH  045%=      5-min Rain = 0
KTAS 090501Z 17011KT 27/14 A301 RMK A01 T02690139  RH  045%=      5-min Rain = 0
KTAS 090502Z 17010KT 27/14 A301 RMK A01 T02700139  RH  044%=      5-min Rain = 0
KTAS 090503Z 18008KT 27/14 A301 RMK A01 T02700139  RH  045%=      5-min Rain = 0
KTAS 090504Z 18010KT 27/14 A301 RMK A01 T02690139  RH  045%=      5-min Rain = 0
KTAS 090505Z 17010KT 27/14 A301 RMK A01 T02700139  RH  044%=      5-min Rain = 0
KTAS 090506Z 17010KT 27/14 A301 RMK A01 T02700139  RH  044%=      5-min Rain = 0
KTAS 090507Z 17010KT 27/14 A301 RMK A01 T02700139  RH  044%=      5-min Rain = 0
KTAS 090508Z 18010KT 27/14 A301 RMK A01 T02700138  RH  044%=      5-min Rain = 0
KTAS 090509Z 18010KT 27/14 A3011 RMK A01 T02700138  RH  044%=      5-min Rain = 0
KTAS 090510Z 17010KT 27/14 A3011 RMK A01 T02690138  RH  044%=      5-min Rain = 0
KTAS 090511Z 17008KT 27/14 A3011 RMK A01 T02690138  RH  044%=      5-min Rain = 0
KTAS 090512Z 17009KT 27/14 A3011 RMK A01 T02700138  RH  044%=      5-min Rain = 0
KTAS 090513Z 18010KT 27/14 A3011 RMK A01 T02700138  RH  044%=      5-min Rain = 0
KTAS 090514Z 18009KT 27/14 A3011 RMK A01 T02700137  RH  044%=      5-min Rain = 0
KTAS 090515Z 18009KT 27/14 A3011 RMK A01 T02700137  RH  044%=      5-min Rain = 0
KTAS 090516Z 17009KT 27/14 A3011 RMK A01 T02710137  RH  044%=      5-min Rain = 0
KTAS 090517Z 18009KT 27/14 A3011 RMK A01 T02720137  RH  043%=      5-min Rain = 0
KTAS 090518Z 18010KT 27/14 A3011 RMK A01 T02720136  RH  043%=      5-min Rain = 0
KTAS 090519Z 17010KT 27/14 A3011 RMK A01 T02730136  RH  043%=      5-min Rain = 0
KTAS 090520Z 18009KT 27/14 A3011 RMK A01 T02730136  RH  043%=      5-min Rain = 0
KTAS 090521Z 17010KT 27/14 A3011 RMK A01 T02730137  RH  043%=      5-min Rain = 0
KTAS 090522Z 17009KT 27/14 A3011 RMK A01 T02730137  RH  043%=      5-min Rain = 0
KTAS 090523Z 17011KT 27/14 A3011 RMK A01 T02720137  RH  043%=      5-min Rain = 0
KTAS 090524Z 17011KT 27/14 A3011 RMK A01 T02720137  RH  043%=      5-min Rain = 0
KTAS 090525Z 17011KT 27/14 A301 RMK A01 T02730137  RH  043%=      5-min Rain = 0
KTAS 090526Z 17010KT 27/14 A301 RMK A01 T02730137  RH  043%=      5-min Rain = 0
KTAS 090527Z 17010KT 27/14 A301 RMK A01 T02730137  RH  043%=      5-min Rain = 0
KTAS 090528Z 18010KT 27/14 A301 RMK A01 T02720137  RH  043%=      5-min Rain = 0
KTAS 090529Z 17011KT 27/14 A301 RMK A01 T02720137  RH  043%=      5-min Rain = 0
KTAS 090530Z 17011KT 27/14 A301 RMK A01 T02730136  RH  043%=      5-min Rain = 0
KTAS 090531Z 17010KT 27/14 A301 RMK A01 T02740136  RH  043%=      5-min Rain = 0
KTAS 090532Z 18010KT 27/14 A301 RMK A01 T02740137  RH  043%=      5-min Rain = 0
KTAS 090533Z 18011KT 27/14 A301 RMK A01 T02740137  RH  043%=      5-min Rain = 0
KTAS 090534Z 17011KT 27/14 A301 RMK A01 T02740136  RH  043%=      5-min Rain = 0
KTAS 090535Z 18010KT 28/14 A3011 RMK A01 T02750137  RH  042%=      5-min Rain = 0
KTAS 090536Z 18010KT 28/14 A3011 RMK A01 T02750137  RH  043%=      5-min Rain = 0
KTAS 090537Z 18011KT 27/14 A301 RMK A01 T02740137  RH  043%=      5-min Rain = 0
KTAS 090538Z 17010KT 28/14 A301 RMK A01 T02750137  RH  043%=      5-min Rain = 0
KTAS 090539Z 18009KT 27/14 A3011 RMK A01 T02740137  RH  043%=      5-min Rain = 0
KTAS 090540Z 18009KT 27/14 A3011 RMK A01 T02730137  RH  043%=      5-min Rain = 0
KTAS 090541Z 18009KT 27/14 A3011 RMK A01 T02720137  RH  043%=      5-min Rain = 0
KTAS 090542Z 18010KT 27/14 A3011 RMK A01 T02720137  RH  043%=      5-min Rain = 0
KTAS 090543Z 18010KT 27/14 A3011 RMK A01 T02720137  RH  043%=      5-min Rain = 0
KTAS 090544Z 18010KT 27/14 A3011 RMK A01 T02720137  RH  043%=      5-min Rain = 0
KTAS 090545Z 17010KT 27/14 A3011 RMK A01 T02720137  RH  043%=      5-min Rain = 0
KTAS 090546Z 18009KT 27/14 A3011 RMK A01 T02720137  RH  043%=      5-min Rain = 0
KTAS 090547Z 18010KT 27/14 A301 RMK A01 T02720138  RH  044%=      5-min Rain = 0
KTAS 090548Z 18010KT 27/14 A301 RMK A01 T02720138  RH  044%=      5-min Rain = 0
KTAS 090549Z 17011KT 27/14 A301 RMK A01 T02720138  RH  043%=      5-min Rain = 0
KTAS 090550Z 17010KT 27/14 A301 RMK A01 T02720138  RH  044%=      5-min Rain = 0
KTAS 090551Z 17010KT 27/14 A301 RMK A01 T02720138  RH  044%=      5-min Rain = 0
KTAS 090552Z 17011KT 27/14 A301 RMK A01 T02720138  RH  044%=      5-min Rain = 0
KTAS 090553Z 17011KT 27/14 A301 RMK A01 T02720138  RH  044%=      5-min Rain = 0
KTAS 090554Z 17010KT 27/14 A301 RMK A01 T02720138  RH  044%=      5-min Rain = 0
KTAS 090555Z 17010KT 27/14 A301 RMK A01 T02710138  RH  044%=      5-min Rain = 0
KTAS 090556Z 18011KT 27/14 A301 RMK A01 T02700138  RH  044%=      5-min Rain = 0
KTAS 090557Z 17011KT 27/14 A301 RMK A01 T02710138  RH  044%=      5-min Rain = 0
KTAS 090558Z 17010KT 27/14 A301 RMK A01 T02720139  RH  044%=      5-min Rain = 0
KTAS 090559Z 17011KT 27/14 A301 RMK A01 T02710139  RH  044%=      5-min Rain = 0
KTAS 090600Z 17011KT 27/14 A301 RMK A01 T02710139  RH  044%=      5-min Rain = 0
KTAS 090601Z 17009KT 27/14 A301 RMK A01 T02710139  RH  044%=      5-min Rain = 0
KTAS 090602Z 17009KT 27/14 A301 RMK A01 T02700139  RH  045%=      5-min Rain = 0
KTAS 090603Z 17010KT 27/14 A301 RMK A01 T02690140  RH  045%=      5-min Rain = 0
KTAS 090604Z 17011KT 27/14 A301 RMK A01 T02690139  RH  045%=      5-min Rain = 0
KTAS 090605Z 17011KT 27/14 A301 RMK A01 T02700140  RH  045%=      5-min Rain = 0
KTAS 090606Z 17011KT 27/14 A301 RMK A01 T02700140  RH  045%=      5-min Rain = 0
KTAS 090607Z 17011KT 27/14 A301 RMK A01 T02700140  RH  045%=      5-min Rain = 0
KTAS 090608Z 17011KT 27/14 A301 RMK A01 T02700140  RH  045%=      5-min Rain = 0
KTAS 090609Z 17010KT 27/14 A301 RMK A01 T02700141  RH  045%=      5-min Rain = 0
KTAS 090610Z 17012KT 27/14 A301 RMK A01 T02690141  RH  045%=      5-min Rain = 0
KTAS 090611Z 17010KT 27/14 A301 RMK A01 T02690141  RH  045%=      5-min Rain = 0
KTAS 090612Z 17012KT 27/14 A301 RMK A01 T02690141  RH  046%=      5-min Rain = 0
KTAS 090613Z 17012KT 27/14 A301 RMK A01 T02690141  RH  045%=      5-min Rain = 0
KTAS 090614Z 17011KT 27/14 A301 RMK A01 T02700141  RH  045%=      5-min Rain = 0
KTAS 090615Z 17012KT 27/14 A301 RMK A01 T02700142  RH  045%=      5-min Rain = 0
KTAS 090616Z 17011KT 27/14 A301 RMK A01 T02700142  RH  046%=      5-min Rain = 0
KTAS 090617Z 17011KT 27/14 A301 RMK A01 T02690142  RH  046%=      5-min Rain = 0
KTAS 090618Z 17011KT 27/14 A301 RMK A01 T02690143  RH  046%=      5-min Rain = 0
KTAS 090619Z 17011KT 27/14 A301 RMK A01 T02690142  RH  046%=      5-min Rain = 0
KTAS 090620Z 17012KT 27/14 A301 RMK A01 T02680143  RH  046%=      5-min Rain = 0
KTAS 090621Z 17011KT 27/14 A301 RMK A01 T02680143  RH  046%=      5-min Rain = 0
KTAS 090622Z 17011KT 27/14 A301 RMK A01 T02680143  RH  046%=      5-min Rain = 0
KTAS 090623Z 17011KT 27/14 A301 RMK A01 T02670144  RH  047%=      5-min Rain = 0
KTAS 090624Z 17010KT 27/14 A3009 RMK A01 T02670144  RH  047%=      5-min Rain = 0
KTAS 090625Z 17011KT 27/14 A3009 RMK A01 T02670144  RH  047%=      5-min Rain = 0
KTAS 090626Z 17011KT 27/14 A3009 RMK A01 T02670144  RH  047%=      5-min Rain = 0
KTAS 090627Z 17011KT 27/14 A3009 RMK A01 T02660144  RH  047%=      5-min Rain = 0
KTAS 090628Z 17011KT 27/14 A3009 RMK A01 T02670144  RH  047%=      5-min Rain = 0
KTAS 090629Z 17011KT 27/15 A3009 RMK A01 T02670145  RH  047%=      5-min Rain = 0
KTAS 090630Z 17011KT 27/14 A3009 RMK A01 T02670144  RH  047%=      5-min Rain = 0
KTAS 090631Z 17010KT 27/14 A3009 RMK A01 T02670144  RH  047%=      5-min Rain = 0
KTAS 090632Z 17011KT 27/14 A3009 RMK A01 T02670144  RH  047%=      5-min Rain = 0
KTAS 090633Z 17012KT 27/14 A3009 RMK A01 T02670144  RH  047%=      5-min Rain = 0
KTAS 090634Z 17012KT 27/14 A3009 RMK A01 T02670144  RH  047%=      5-min Rain = 0
KTAS 090635Z 17011KT 27/14 A3009 RMK A01 T02680144  RH  047%=      5-min Rain = 0
KTAS 090636Z 17012KT 27/14 A3009 RMK A01 T02670144  RH  047%=      5-min Rain = 0
KTAS 090637Z 17011KT 27/14 A3009 RMK A01 T02670144  RH  047%=      5-min Rain = 0
KTAS 090638Z 17012KT 27/14 A3009 RMK A01 T02670144  RH  047%=      5-min Rain = 0
KTAS 090639Z 17013KT 27/14 A3009 RMK A01 T02670144  RH  047%=      5-min Rain = 0
KTAS 090640Z 17013KT 27/14 A3009 RMK A01 T02680143  RH  046%=      5-min Rain = 0
KTAS 090641Z 17013KT 27/14 A3009 RMK A01 T02680144  RH  046%=      5-min Rain = 0
KTAS 090642Z 17013KT 27/14 A3009 RMK A01 T02680144  RH  046%=      5-min Rain = 0
KTAS 090643Z 17013KT 27/14 A3009 RMK A01 T02680144  RH  046%=      5-min Rain = 0
KTAS 090644Z 17013KT 27/14 A3009 RMK A01 T02680144  RH  046%=      5-min Rain = 0
KTAS 090645Z 17011KT 27/14 A3009 RMK A01 T02680144  RH  047%=      5-min Rain = 0
KTAS 090646Z 17012G17KT 27/14 A3009 RMK A01 T02680144  RH  047%=      5-min Rain = 0
KTAS 090647Z 17011KT 27/15 A3009 RMK A01 T02680145  RH  047%=      5-min Rain = 0
KTAS 090648Z 17012KT 27/15 A3009 RMK A01 T02670145  RH  047%=      5-min Rain = 0
KTAS 090649Z 17010KT 27/15 A3009 RMK A01 T02660145  RH  047%=      5-min Rain = 0
KTAS 090650Z 17012KT 27/15 A3009 RMK A01 T02660145  RH  047%=      5-min Rain = 0
KTAS 090651Z 17014KT 27/15 A3009 RMK A01 T02660145  RH  047%=      5-min Rain = 0
KTAS 090652Z 17012KT 27/15 A3009 RMK A01 T02670145  RH  047%=      5-min Rain = 0
KTAS 090653Z 17011G16KT 27/15 A3009 RMK A01 T02680145  RH  047%=      5-min Rain = 0
KTAS 090654Z 17012KT 27/15 A3009 RMK A01 T02670145  RH  047%=      5-min Rain = 0
KTAS 090655Z 17012KT 27/15 A3009 RMK A01 T02670145  RH  047%=      5-min Rain = 0
KTAS 090656Z 17012KT 27/15 A3009 RMK A01 T02670146  RH  047%=      5-min Rain = 0
KTAS 090657Z 17014KT 27/15 A3009 RMK A01 T02670145  RH  047%=      5-min Rain = 0
KTAS 090658Z 18014KT 27/15 A3009 RMK A01 T02680145  RH  047%=      5-min Rain = 0
KTAS 090659Z 17014KT 27/15 A3009 RMK A01 T02680145  RH  047%=      5-min Rain = 0
KTAS 090700Z 18011KT 27/15 A3009 RMK A01 T02690145  RH  047%=      5-min Rain = 0
KTAS 090701Z 17013KT 27/15 A3009 RMK A01 T02680145  RH  047%=      5-min Rain = 0
KTAS 090702Z 17012KT 27/15 A3009 RMK A01 T02680145  RH  047%=      5-min Rain = 0
KTAS 090703Z 17015G20KT 27/15 A3009 RMK A01 T02680145  RH  047%=      5-min Rain = 0
KTAS 090704Z 18014KT 27/15 A3009 RMK A01 T02690145  RH  047%=      5-min Rain = 0
KTAS 090705Z 18011KT 27/15 A3009 RMK A01 T02690145  RH  047%=      5-min Rain = 0
KTAS 090706Z 17013KT 27/15 A3009 RMK A01 T02680145  RH  047%=      5-min Rain = 0
KTAS 090707Z 17013KT 27/15 A3009 RMK A01 T02680145  RH  047%=      5-min Rain = 0
KTAS 090708Z 18014KT 27/15 A3009 RMK A01 T02680145  RH  047%=      5-min Rain = 0
KTAS 090709Z 17013KT 27/15 A3009 RMK A01 T02690145  RH  047%=      5-min Rain = 0
KTAS 090710Z 17014KT 27/15 A3009 RMK A01 T02690145  RH  047%=      5-min Rain = 0
KTAS 090711Z 18015KT 27/15 A3009 RMK A01 T02680145  RH  047%=      5-min Rain = 0
KTAS 090712Z 17014KT 27/15 A3009 RMK A01 T02680145  RH  047%=      5-min Rain = 0
KTAS 090713Z 17014KT 27/15 A3009 RMK A01 T02680145  RH  047%=      5-min Rain = 0
KTAS 090714Z 18013KT 27/15 A3009 RMK A01 T02680146  RH  047%=      5-min Rain = 0
KTAS 090715Z 18013KT 27/15 A3009 RMK A01 T02680146  RH  047%=      5-min Rain = 0
KTAS 090716Z 18013KT 27/15 A3009 RMK A01 T02680146  RH  047%=      5-min Rain = 0
KTAS 090717Z 18013KT 27/15 A3009 RMK A01 T02670146  RH  047%=      5-min Rain = 0
KTAS 090718Z 18013KT 27/15 A3009 RMK A01 T02670146  RH  047%=      5-min Rain = 0
KTAS 090719Z 18013KT 27/15 A3009 RMK A01 T02670146  RH  047%=      5-min Rain = 0
KTAS 090720Z 18011KT 27/15 A3009 RMK A01 T02660146  RH  048%=      5-min Rain = 0
KTAS 090721Z 18011KT 27/15 A3009 RMK A01 T02660146  RH  048%=      5-min Rain = 0
KTAS 090722Z 18012KT 27/15 A3009 RMK A01 T02650146  RH  048%=      5-min Rain = 0
KTAS 090723Z 18012KT 27/15 A3009 RMK A01 T02650146  RH  048%=      5-min Rain = 0
KTAS 090724Z 18011KT 27/15 A3009 RMK A01 T02650146  RH  048%=      5-min Rain = 0
KTAS 090725Z 18011KT 26/15 A3009 RMK A01 T02640146  RH  048%=      5-min Rain = 0
KTAS 090726Z 19010KT 26/15 A3009 RMK A01 T02640146  RH  048%=      5-min Rain = 0
KTAS 090727Z 18012KT 26/15 A3009 RMK A01 T02630146  RH  049%=      5-min Rain = 0
KTAS 090728Z 19012KT 26/15 A3009 RMK A01 T02640146  RH  048%=      5-min Rain = 0
KTAS 090729Z 19014KT 26/15 A3009 RMK A01 T02640146  RH  048%=      5-min Rain = 0
KTAS 090730Z 19013KT 26/15 A3009 RMK A01 T02640146  RH  048%=      5-min Rain = 0
KTAS 090731Z 18013KT 26/15 A3009 RMK A01 T02640146  RH  048%=      5-min Rain = 0
KTAS 090732Z 19011KT 26/15 A3009 RMK A01 T02640146  RH  048%=      5-min Rain = 0
KTAS 090733Z 19010KT 26/15 A3009 RMK A01 T02640147  RH  048%=      5-min Rain = 0
KTAS 090734Z 19011KT 26/15 A3009 RMK A01 T02630147  RH  049%=      5-min Rain = 0
KTAS 090735Z 19012KT 26/15 A3009 RMK A01 T02630147  RH  049%=      5-min Rain = 0
KTAS 090736Z 18012KT 26/15 A3009 RMK A01 T02630147  RH  049%=      5-min Rain = 0
KTAS 090737Z 18010KT 26/15 A3009 RMK A01 T02620147  RH  049%=      5-min Rain = 0
KTAS 090738Z 18011KT 26/15 A3009 RMK A01 T02620147  RH  049%=      5-min Rain = 0
KTAS 090739Z 18011KT 26/15 A3009 RMK A01 T02620147  RH  049%=      5-min Rain = 0
KTAS 090740Z 18011KT 26/15 A3009 RMK A01 T02630147  RH  049%=      5-min Rain = 0
KTAS 090741Z 18012KT 26/15 A3009 RMK A01 T02620147  RH  049%=      5-min Rain = 0
KTAS 090742Z 18011KT 26/15 A3009 RMK A01 T02620147  RH  049%=      5-min Rain = 0
KTAS 090743Z 18011KT 26/15 A3009 RMK A01 T02620147  RH  049%=      5-min Rain = 0
KTAS 090744Z 18010KT 26/15 A3009 RMK A01 T02620148  RH  049%=      5-min Rain = 0
KTAS 090745Z 18010KT 26/15 A3009 RMK A01 T02620147  RH  049%=      5-min Rain = 0
KTAS 090746Z 18011KT 26/15 A3009 RMK A01 T02620148  RH  049%=      5-min Rain = 0
KTAS 090747Z 18010KT 26/15 A3009 RMK A01 T02620148  RH  049%=      5-min Rain = 0
KTAS 090748Z 18010KT 26/15 A3009 RMK A01 T02610148  RH  050%=      5-min Rain = 0
KTAS 090749Z 18011KT 26/15 A3009 RMK A01 T02610148  RH  050%=      5-min Rain = 0
KTAS 090750Z 18012KT 26/15 A3009 RMK A01 T02620148  RH  049%=      5-min Rain = 0
KTAS 090751Z 18010KT 26/15 A3009 RMK A01 T02620148  RH  049%=      5-min Rain = 0
KTAS 090752Z 18012KT 26/15 A3009 RMK A01 T02620148  RH  049%=      5-min Rain = 0
KTAS 090753Z 18011KT 26/15 A3009 RMK A01 T02620148  RH  049%=      5-min Rain = 0
KTAS 090754Z 18009G14KT 26/15 A3009 RMK A01 T02620148  RH  049%=      5-min Rain = 0
KTAS 090755Z 18012KT 26/15 A3009 RMK A01 T02620148  RH  049%=      5-min Rain = 0
KTAS 090756Z 18012KT 26/15 A3009 RMK A01 T02620148  RH  050%=      5-min Rain = 0
KTAS 090757Z 18010KT 26/15 A3009 RMK A01 T02620148  RH  049%=      5-min Rain = 0
KTAS 090758Z 18010KT 26/15 A3009 RMK A01 T02610148  RH  050%=      5-min Rain = 0
KTAS 090759Z 19009KT 26/15 A3009 RMK A01 T02610148  RH  050%=      5-min Rain = 0
KTAS 090800Z 19009KT 26/15 A3009 RMK A01 T02610148  RH  050%=      5-min Rain = 0
KTAS 090801Z 19010KT 26/15 A3009 RMK A01 T02600148  RH  050%=      5-min Rain = 0
KTAS 090802Z 18010KT 26/15 A3009 RMK A01 T02590148  RH  050%=      5-min Rain = 0
KTAS 090803Z 19010KT 26/15 A3009 RMK A01 T02590148  RH  050%=      5-min Rain = 0
KTAS 090804Z 19010KT 26/15 A3009 RMK A01 T02590148  RH  050%=      5-min Rain = 0
KTAS 090805Z 18009KT 26/15 A3009 RMK A01 T02590148  RH  050%=      5-min Rain = 0
KTAS 090806Z 19009KT 26/15 A3009 RMK A01 T02590148  RH  050%=      5-min Rain = 0
KTAS 090807Z 18008KT 26/15 A3009 RMK A01 T02580148  RH  051%=      5-min Rain = 0
KTAS 090808Z 19009KT 26/15 A3009 RMK A01 T02580148  RH  051%=      5-min Rain = 0
KTAS 090809Z 19008KT 26/15 A3009 RMK A01 T02570148  RH  051%=      5-min Rain = 0
KTAS 090810Z 19008KT 26/15 A3009 RMK A01 T02570148  RH  051%=      5-min Rain = 0
KTAS 090811Z 19007KT 26/15 A3009 RMK A01 T02560148  RH  051%=      5-min Rain = 0
KTAS 090812Z 19007KT 26/15 A3009 RMK A01 T02560148  RH  051%=      5-min Rain = 0
KTAS 090813Z 19008KT 26/15 A3009 RMK A01 T02550148  RH  052%=      5-min Rain = 0
KTAS 090814Z 19007KT 26/15 A3009 RMK A01 T02550148  RH  052%=      5-min Rain = 0
KTAS 090815Z 19007KT 25/15 A3009 RMK A01 T02540148  RH  052%=      5-min Rain = 0
KTAS 090816Z 19007KT 25/15 A3009 RMK A01 T02540148  RH  052%=      5-min Rain = 0
KTAS 090817Z 20007KT 25/15 A3009 RMK A01 T02530148  RH  052%=      5-min Rain = 0
KTAS 090818Z 20007KT 25/15 A3009 RMK A01 T02520148  RH  052%=      5-min Rain = 0
KTAS 090819Z 20007KT 25/15 A3009 RMK A01 T02520148  RH  053%=      5-min Rain = 0
KTAS 090820Z 20007KT 25/15 A3009 RMK A01 T02510148  RH  053%=      5-min Rain = 0
KTAS 090821Z 20007KT 25/15 A3009 RMK A01 T02510148  RH  053%=      5-min Rain = 0
KTAS 090822Z 20008KT 25/15 A3009 RMK A01 T02510148  RH  053%=      5-min Rain = 0
KTAS 090823Z 20007KT 25/15 A3009 RMK A01 T02510148  RH  053%=      5-min Rain = 0
KTAS 090824Z 20006KT 25/15 A3009 RMK A01 T02500148  RH  053%=      5-min Rain = 0
KTAS 090825Z 20006KT 25/15 A3009 RMK A01 T02490148  RH  053%=      5-min Rain = 0
KTAS 090826Z 20007KT 25/15 A3009 RMK A01 T02480148  RH  054%=      5-min Rain = 0
KTAS 090827Z 20007KT 25/15 A3009 RMK A01 T02480148  RH  054%=      5-min Rain = 0
KTAS 090828Z 20006KT 25/15 A3009 RMK A01 T02480148  RH  054%=      5-min Rain = 0
KTAS 090829Z 20007KT 25/15 A3009 RMK A01 T02480148  RH  054%=      5-min Rain = 0
KTAS 090830Z 20007KT 25/15 A3009 RMK A01 T02470149  RH  054%=      5-min Rain = 0
KTAS 090831Z 20007KT 25/15 A3009 RMK A01 T02470149  RH  054%=      5-min Rain = 0
KTAS 090832Z 20007KT 25/15 A3009 RMK A01 T02470149  RH  054%=      5-min Rain = 0
KTAS 090833Z 20007KT 25/15 A3009 RMK A01 T02460149  RH  054%=      5-min Rain = 0
KTAS 090834Z 20007KT 25/15 A3009 RMK A01 T02460149  RH  055%=      5-min Rain = 0
KTAS 090835Z 20006KT 25/15 A3009 RMK A01 T02450148  RH  055%=      5-min Rain = 0
KTAS 090836Z 20007KT 25/15 A3009 RMK A01 T02450148  RH  055%=      5-min Rain = 0
KTAS 090837Z 20007KT 25/15 A3009 RMK A01 T02450149  RH  055%=      5-min Rain = 0
KTAS 090838Z 20007KT 25/15 A3009 RMK A01 T02450148  RH  055%=      5-min Rain = 0
KTAS 090839Z 20007KT 25/15 A3009 RMK A01 T02450148  RH  055%=      5-min Rain = 0
KTAS 090840Z 20007KT 25/15 A3009 RMK A01 T02450148  RH  055%=      5-min Rain = 0
KTAS 090841Z 20006KT 25/15 A3009 RMK A01 T02450148  RH  055%=      5-min Rain = 0
KTAS 090842Z 19007KT 25/15 A3009 RMK A01 T02450148  RH  055%=      5-min Rain = 0
KTAS 090843Z 19007KT 25/15 A3009 RMK A01 T02450148  RH  055%=      5-min Rain = 0
KTAS 090844Z 19007KT 25/15 A3009 RMK A01 T02450148  RH  055%=      5-min Rain = 0
KTAS 090845Z 19007KT 25/15 A3009 RMK A01 T02450148  RH  054%=      5-min Rain = 0
KTAS 090846Z 19007KT 25/15 A3009 RMK A01 T02450148  RH  055%=      5-min Rain = 0
KTAS 090847Z 20007KT 25/15 A3009 RMK A01 T02450148  RH  055%=      5-min Rain = 0
KTAS 090848Z 19008KT 25/15 A3009 RMK A01 T02450148  RH  055%=      5-min Rain = 0
KTAS 090849Z 20007KT 25/15 A3009 RMK A01 T02460148  RH  054%=      5-min Rain = 0
KTAS 090850Z 20008KT 25/15 A3009 RMK A01 T02460148  RH  054%=      5-min Rain = 0
KTAS 090851Z 20007KT 25/15 A3009 RMK A01 T02460148  RH  054%=      5-min Rain = 0
KTAS 090852Z 20007KT 25/15 A3009 RMK A01 T02460148  RH  054%=      5-min Rain = 0
KTAS 090853Z 20007KT 25/15 A3009 RMK A01 T02460148  RH  054%=      5-min Rain = 0
KTAS 090854Z 20008KT 25/15 A3009 RMK A01 T02460148  RH  054%=      5-min Rain = 0
KTAS 090855Z 20007KT 25/15 A3009 RMK A01 T02460148  RH  054%=      5-min Rain = 0
KTAS 090856Z 20008KT 25/15 A3009 RMK A01 T02470148  RH  054%=      5-min Rain = 0
KTAS 090857Z 20008KT 25/15 A3009 RMK A01 T02470148  RH  054%=      5-min Rain = 0
KTAS 090858Z 20007KT 25/15 A3009 RMK A01 T02470149  RH  054%=      5-min Rain = 0
KTAS 090859Z 20008KT 25/15 A3009 RMK A01 T02470148  RH  054%=      5-min Rain = 0
KTAS 090900Z 20009KT 25/15 A3009 RMK A01 T02480149  RH  054%=      5-min Rain = 0
KTAS 090901Z 20009KT 25/15 A3009 RMK A01 T02480149  RH  054%=      5-min Rain = 0
KTAS 090902Z 19008KT 25/15 A3009 RMK A01 T02470149  RH  054%=      5-min Rain = 0
KTAS 090903Z 20008KT 25/15 A3009 RMK A01 T02470149  RH  054%=      5-min Rain = 0
KTAS 090904Z 19009KT 25/15 A3009 RMK A01 T02470149  RH  054%=      5-min Rain = 0
KTAS 090905Z 19008KT 25/15 A3009 RMK A01 T02470149  RH  054%=      5-min Rain = 0
KTAS 090906Z 20008KT 25/15 A3009 RMK A01 T02470149  RH  054%=      5-min Rain = 0
KTAS 090907Z 19008KT 25/15 A3009 RMK A01 T02470149  RH  054%=      5-min Rain = 0
KTAS 090908Z 20008KT 25/15 A3009 RMK A01 T02470149  RH  054%=      5-min Rain = 0
KTAS 090909Z 20008KT 25/15 A3009 RMK A01 T02470149  RH  054%=      5-min Rain = 0
KTAS 090910Z 20008KT 25/15 A3009 RMK A01 T02460149  RH  055%=      5-min Rain = 0
KTAS 090911Z 21008KT 25/15 A3009 RMK A01 T02460149  RH  055%=      5-min Rain = 0
KTAS 090912Z 21008KT 25/15 A3009 RMK A01 T02470149  RH  055%=      5-min Rain = 0
KTAS 090913Z 21008KT 25/15 A3009 RMK A01 T02470150  RH  055%=      5-min Rain = 0
KTAS 090914Z 21008KT 25/15 A3009 RMK A01 T02470150  RH  055%=      5-min Rain = 0
KTAS 090915Z 21007KT 25/15 A3009 RMK A01 T02460150  RH  055%=      5-min Rain = 0
KTAS 090916Z 21009KT 25/15 A3009 RMK A01 T02460150  RH  055%=      5-min Rain = 0
KTAS 090917Z 20008KT 25/15 A3009 RMK A01 T02460150  RH  055%=      5-min Rain = 0
KTAS 090918Z 20008KT 25/15 A3009 RMK A01 T02450150  RH  055%=      5-min Rain = 0
KTAS 090919Z 19008KT 25/15 A3009 RMK A01 T02450150  RH  055%=      5-min Rain = 0
KTAS 090920Z 19009KT 25/15 A3009 RMK A01 T02450149  RH  055%=      5-min Rain = 0
KTAS 090921Z 19009KT 25/15 A3009 RMK A01 T02450149  RH  055%=      5-min Rain = 0
KTAS 090922Z 19009KT 25/15 A3009 RMK A01 T02450149  RH  055%=      5-min Rain = 0
KTAS 090923Z 18009KT 25/15 A3009 RMK A01 T02450149  RH  055%=      5-min Rain = 0
KTAS 090924Z 18009KT 25/15 A3009 RMK A01 T02450149  RH  055%=      5-min Rain = 0
KTAS 090925Z 18009KT 25/15 A3009 RMK A01 T02450149  RH  055%=      5-min Rain = 0
KTAS 090926Z 18009KT 25/15 A3009 RMK A01 T02450149  RH  055%=      5-min Rain = 0
KTAS 090927Z 19008KT 25/15 A3009 RMK A01 T02450149  RH  055%=      5-min Rain = 0
KTAS 090928Z 19010KT 25/15 A3009 RMK A01 T02450149  RH  055%=      5-min Rain = 0
KTAS 090929Z 19009KT 25/15 A3009 RMK A01 T02450148  RH  055%=      5-min Rain = 0
KTAS 090930Z 19009KT 25/15 A3009 RMK A01 T02450148  RH  055%=      5-min Rain = 0
KTAS 090931Z 19009KT 25/15 A3009 RMK A01 T02450148  RH  055%=      5-min Rain = 0
KTAS 090932Z 19009KT 25/15 A3009 RMK A01 T02460148  RH  055%=      5-min Rain = 0
KTAS 090933Z 19009KT 25/15 A3009 RMK A01 T02460149  RH  055%=      5-min Rain = 0
KTAS 090934Z 19009KT 25/15 A3009 RMK A01 T02460149  RH  055%=      5-min Rain = 0
KTAS 090935Z 19009KT 25/15 A3009 RMK A01 T02450149  RH  055%=      5-min Rain = 0
KTAS 090936Z 19009KT 25/15 A3009 RMK A01 T02450148  RH  055%=      5-min Rain = 0
KTAS 090937Z 19009KT 25/15 A3009 RMK A01 T02450148  RH  055%=      5-min Rain = 0
KTAS 090938Z 19009KT 25/15 A3009 RMK A01 T02450149  RH  055%=      5-min Rain = 0
KTAS 090939Z 19009KT 24/15 A3009 RMK A01 T02440149  RH  055%=      5-min Rain = 0
KTAS 090940Z 19009KT 24/15 A3009 RMK A01 T02440148  RH  055%=      5-min Rain = 0
KTAS 090941Z 19009KT 24/15 A3009 RMK A01 T02440149  RH  055%=      5-min Rain = 0
KTAS 090942Z 19009KT 24/15 A3009 RMK A01 T02440149  RH  055%=      5-min Rain = 0
KTAS 090943Z 19008KT 24/15 A3009 RMK A01 T02440148  RH  055%=      5-min Rain = 0
KTAS 090944Z 19008KT 24/15 A3009 RMK A01 T02430149  RH  055%=      5-min Rain = 0
KTAS 090945Z 19009KT 24/15 A3009 RMK A01 T02430149  RH  056%=      5-min Rain = 0
KTAS 090946Z 19009KT 24/15 A3009 RMK A01 T02420149  RH  056%=      5-min Rain = 0
KTAS 090947Z 19008KT 24/15 A3009 RMK A01 T02420149  RH  056%=      5-min Rain = 0
KTAS 090948Z 19008KT 24/15 A3009 RMK A01 T02420149  RH  056%=      5-min Rain = 0
KTAS 090949Z 19009KT 24/15 A3009 RMK A01 T02420149  RH  056%=      5-min Rain = 0
KTAS 090950Z 19009KT 24/15 A3009 RMK A01 T02410148  RH  056%=      5-min Rain = 0
KTAS 090951Z 19009KT 24/15 A3009 RMK A01 T02410148  RH  056%=      5-min Rain = 0
KTAS 090952Z 19009KT 24/15 A3009 RMK A01 T02410148  RH  056%=      5-min Rain = 0
KTAS 090953Z 19008KT 24/15 A3009 RMK A01 T02410148  RH  056%=      5-min Rain = 0
KTAS 090954Z 19009KT 24/15 A3009 RMK A01 T02400148  RH  056%=      5-min Rain = 0
KTAS 090955Z 19008KT 24/15 A3009 RMK A01 T02400148  RH  056%=      5-min Rain = 0
KTAS 090956Z 19009KT 24/15 A3009 RMK A01 T02400148  RH  056%=      5-min Rain = 0
KTAS 090957Z 19008KT 24/15 A3009 RMK A01 T02390148  RH  057%=      5-min Rain = 0
KTAS 090958Z 19008KT 24/15 A3009 RMK A01 T02390148  RH  057%=      5-min Rain = 0
KTAS 090959Z 19009KT 24/15 A3009 RMK A01 T02380148  RH  057%=      5-min Rain = 0
KTAS 091000Z 19007KT 24/15 A3009 RMK A01 T02380148  RH  057%=      5-min Rain = 0
KTAS 091001Z 19008KT 24/15 A3009 RMK A01 T02380149  RH  057%=      5-min Rain = 0
KTAS 091002Z 19008KT 24/15 A3009 RMK A01 T02380149  RH  057%=      5-min Rain = 0
KTAS 091003Z 19009KT 24/15 A3009 RMK A01 T02370148  RH  057%=      5-min Rain = 0
KTAS 091004Z 19008KT 24/15 A3009 RMK A01 T02370148  RH  057%=      5-min Rain = 0
KTAS 091005Z 19008KT 24/15 A3009 RMK A01 T02370148  RH  057%=      5-min Rain = 0
KTAS 091006Z 19009KT 24/15 A3009 RMK A01 T02370148  RH  058%=      5-min Rain = 0
KTAS 091007Z 19008KT 24/15 A3009 RMK A01 T02370148  RH  058%=      5-min Rain = 0
KTAS 091008Z 19008KT 24/15 A3009 RMK A01 T02360148  RH  058%=      5-min Rain = 0
KTAS 091009Z 19010KT 24/15 A3009 RMK A01 T02360148  RH  058%=      5-min Rain = 0
KTAS 091010Z 19009KT 24/15 A3009 RMK A01 T02360148  RH  058%=      5-min Rain = 0
KTAS 091011Z 19008KT 24/15 A3008 RMK A01 T02360148  RH  058%=      5-min Rain = 0
KTAS 091012Z 19008KT 24/15 A3008 RMK A01 T02360148  RH  058%=      5-min Rain = 0
KTAS 091013Z 18009KT 24/15 A3008 RMK A01 T02350148  RH  058%=      5-min Rain = 0
KTAS 091014Z 18009KT 24/15 A3008 RMK A01 T02350148  RH  058%=      5-min Rain = 0
KTAS 091015Z 18009KT 23/15 A3008 RMK A01 T02340147  RH  058%=      5-min Rain = 0
KTAS 091016Z 18009KT 23/15 A3008 RMK A01 T02340147  RH  058%=      5-min Rain = 0
KTAS 091017Z 19009KT 24/15 A3008 RMK A01 T02350148  RH  058%=      5-min Rain = 0
KTAS 091018Z 18009KT 23/15 A3008 RMK A01 T02340147  RH  058%=      5-min Rain = 0
KTAS 091019Z 18009KT 23/15 A3008 RMK A01 T02340147  RH  058%=      5-min Rain = 0
KTAS 091020Z 18009KT 23/15 A3008 RMK A01 T02340147  RH  058%=      5-min Rain = 0
KTAS 091021Z 18009KT 23/15 A3008 RMK A01 T02340147  RH  058%=      5-min Rain = 0
KTAS 091022Z 18010KT 23/15 A3008 RMK A01 T02340148  RH  058%=      5-min Rain = 0
KTAS 091023Z 18009KT 23/15 A3008 RMK A01 T02340148  RH  058%=      5-min Rain = 0
KTAS 091024Z 18009KT 23/15 A3008 RMK A01 T02340148  RH  058%=      5-min Rain = 0
KTAS 091025Z 18009KT 23/15 A3008 RMK A01 T02340148  RH  058%=      5-min Rain = 0
KTAS 091026Z 18010KT 23/15 A3008 RMK A01 T02340148  RH  059%=      5-min Rain = 0
KTAS 091027Z 19010KT 23/15 A3008 RMK A01 T02340148  RH  059%=      5-min Rain = 0
KTAS 091028Z 19010KT 23/15 A3008 RMK A01 T02340148  RH  059%=      5-min Rain = 0
KTAS 091029Z 18010KT 23/15 A3008 RMK A01 T02330148  RH  059%=      5-min Rain = 0
KTAS 091030Z 18009KT 23/15 A3008 RMK A01 T02330148  RH  059%=      5-min Rain = 0
KTAS 091031Z 18009KT 23/15 A3008 RMK A01 T02330149  RH  059%=      5-min Rain = 0
KTAS 091032Z 18008KT 23/15 A3008 RMK A01 T02330149  RH  059%=      5-min Rain = 0
KTAS 091033Z 18009KT 23/15 A3008 RMK A01 T02320149  RH  059%=      5-min Rain = 0
KTAS 091034Z 18009KT 23/15 A3008 RMK A01 T02320149  RH  060%=      5-min Rain = 0
KTAS 091035Z 18010KT 23/15 A3008 RMK A01 T02320149  RH  060%=      5-min Rain = 0
KTAS 091036Z 18010KT 23/15 A3008 RMK A01 T02320150  RH  060%=      5-min Rain = 0
KTAS 091037Z 18010KT 23/15 A3008 RMK A01 T02330150  RH  060%=      5-min Rain = 0
KTAS 091038Z 18010KT 23/15 A3008 RMK A01 T02330150  RH  059%=      5-min Rain = 0
KTAS 091039Z 18010KT 23/15 A3008 RMK A01 T02330150  RH  060%=      5-min Rain = 0
KTAS 091040Z 18009KT 23/15 A3009 RMK A01 T02330150  RH  060%=      5-min Rain = 0
KTAS 091041Z 18010KT 23/15 A3009 RMK A01 T02320150  RH  060%=      5-min Rain = 0
KTAS 091042Z 18010KT 23/15 A3009 RMK A01 T02320151  RH  060%=      5-min Rain = 0
KTAS 091043Z 18010KT 23/15 A3009 RMK A01 T02320151  RH  060%=      5-min Rain = 0
KTAS 091044Z 18009KT 23/15 A3009 RMK A01 T02320150  RH  060%=      5-min Rain = 0
KTAS 091045Z 18009KT 23/15 A3009 RMK A01 T02320151  RH  060%=      5-min Rain = 0
KTAS 091046Z 19009KT 23/15 A3009 RMK A01 T02320151  RH  060%=      5-min Rain = 0
KTAS 091047Z 19009KT 23/15 A3009 RMK A01 T02320151  RH  060%=      5-min Rain = 0
KTAS 091048Z 18009KT 23/15 A3009 RMK A01 T02320151  RH  060%=      5-min Rain = 0
KTAS 091049Z 19009KT 23/15 A3009 RMK A01 T02310151  RH  061%=      5-min Rain = 0
KTAS 091050Z 18009KT 23/15 A3009 RMK A01 T02310151  RH  061%=      5-min Rain = 0
KTAS 091051Z 18008KT 23/15 A3009 RMK A01 T02300150  RH  061%=      5-min Rain = 0
KTAS 091052Z 18009KT 23/15 A3009 RMK A01 T02300151  RH  061%=      5-min Rain = 0
KTAS 091053Z 18008KT 23/15 A3009 RMK A01 T02300151  RH  061%=      5-min Rain = 0
KTAS 091054Z 18008KT 23/15 A3009 RMK A01 T02300151  RH  061%=      5-min Rain = 0
KTAS 091055Z 18008KT 23/15 A3009 RMK A01 T02300151  RH  061%=      5-min Rain = 0
KTAS 091056Z 18008KT 23/15 A3009 RMK A01 T02290151  RH  061%=      5-min Rain = 0
KTAS 091057Z 18009KT 23/15 A3009 RMK A01 T02290151  RH  061%=      5-min Rain = 0
KTAS 091058Z 18008KT 23/15 A3009 RMK A01 T02290151  RH  062%=      5-min Rain = 0
KTAS 091059Z 18009KT 23/15 A3009 RMK A01 T02280151  RH  062%=      5-min Rain = 0
KTAS 091100Z 18008KT 23/15 A3009 RMK A01 T02280151  RH  062%=      5-min Rain = 0
KTAS 091101Z 18007KT 23/15 A3009 RMK A01 T02280151  RH  062%=      5-min Rain = 0
KTAS 091102Z 18008KT 23/15 A3009 RMK A01 T02280151  RH  062%=      5-min Rain = 0
KTAS 091103Z 18009KT 23/15 A3009 RMK A01 T02270151  RH  062%=      5-min Rain = 0
KTAS 091104Z 18008KT 23/15 A3009 RMK A01 T02270151  RH  062%=      5-min Rain = 0
KTAS 091105Z 18008KT 23/15 A3009 RMK A01 T02270151  RH  062%=      5-min Rain = 0
KTAS 091106Z 18008KT 23/15 A3009 RMK A01 T02260151  RH  063%=      5-min Rain = 0
KTAS 091107Z 18008KT 23/15 A3009 RMK A01 T02260151  RH  063%=      5-min Rain = 0
KTAS 091108Z 17007KT 23/15 A3009 RMK A01 T02250151  RH  063%=      5-min Rain = 0
KTAS 091109Z 18007KT 22/15 A3009 RMK A01 T02240151  RH  063%=      5-min Rain = 0
KTAS 091110Z 18008KT 22/15 A3009 RMK A01 T02230151  RH  064%=      5-min Rain = 0
KTAS 091111Z 18007KT 22/15 A3009 RMK A01 T02220151  RH  064%=      5-min Rain = 0
KTAS 091112Z 17007KT 22/15 A3009 RMK A01 T02220151  RH  064%=      5-min Rain = 0
KTAS 091113Z 18007KT 22/15 A3009 RMK A01 T02210151  RH  064%=      5-min Rain = 0
KTAS 091114Z 17008KT 22/15 A3009 RMK A01 T02200151  RH  065%=      5-min Rain = 0
KTAS 091115Z 17008KT 22/15 A3009 RMK A01 T02200151  RH  065%=      5-min Rain = 0
KTAS 091116Z 18009KT 22/15 A3009 RMK A01 T02200150  RH  064%=      5-min Rain = 0
KTAS 091117Z 17008KT 22/15 A3009 RMK A01 T02210150  RH  064%=      5-min Rain = 0
KTAS 091118Z 17008KT 22/15 A3009 RMK A01 T02210151  RH  064%=      5-min Rain = 0
KTAS 091119Z 17009KT 22/15 A3009 RMK A01 T02210151  RH  064%=      5-min Rain = 0
KTAS 091120Z 17009KT 22/15 A3009 RMK A01 T02220151  RH  064%=      5-min Rain = 0
KTAS 091121Z 18008KT 22/15 A3009 RMK A01 T02220151  RH  064%=      5-min Rain = 0
KTAS 091122Z 18009KT 22/15 A3009 RMK A01 T02230152  RH  064%=      5-min Rain = 0
KTAS 091123Z 18008KT 22/15 A301 RMK A01 T02230152  RH  064%=      5-min Rain = 0
KTAS 091124Z 18008KT 22/15 A301 RMK A01 T02230152  RH  064%=      5-min Rain = 0
KTAS 091125Z 18009KT 22/15 A301 RMK A01 T02230152  RH  064%=      5-min Rain = 0
KTAS 091126Z 18009KT 22/15 A301 RMK A01 T02240152  RH  064%=      5-min Rain = 0
KTAS 091127Z 18009KT 22/15 A301 RMK A01 T02230152  RH  064%=      5-min Rain = 0
KTAS 091128Z 17009KT 22/15 A301 RMK A01 T02230152  RH  064%=      5-min Rain = 0
KTAS 091129Z 18008KT 22/15 A301 RMK A01 T02230153  RH  064%=      5-min Rain = 0
KTAS 091130Z 18009KT 22/15 A301 RMK A01 T02230153  RH  064%=      5-min Rain = 0
KTAS 091131Z 18008KT 22/15 A301 RMK A01 T02220153  RH  065%=      5-min Rain = 0
KTAS 091132Z 18009KT 22/15 A301 RMK A01 T02220153  RH  065%=      5-min Rain = 0
KTAS 091133Z 18009KT 22/15 A301 RMK A01 T02220153  RH  065%=      5-min Rain = 0
KTAS 091134Z 18008KT 22/15 A301 RMK A01 T02220153  RH  065%=      5-min Rain = 0
KTAS 091135Z 18008KT 22/15 A301 RMK A01 T02220153  RH  065%=      5-min Rain = 0
KTAS 091136Z 18008KT 22/15 A301 RMK A01 T02220153  RH  065%=      5-min Rain = 0
KTAS 091137Z 18007KT 22/15 A301 RMK A01 T02210153  RH  065%=      5-min Rain = 0
KTAS 091138Z 17007KT 22/15 A3011 RMK A01 T02210154  RH  066%=      5-min Rain = 0
KTAS 091139Z 18008KT 22/15 A3011 RMK A01 T02200154  RH  066%=      5-min Rain = 0
KTAS 091140Z 17007KT 22/15 A3011 RMK A01 T02200154  RH  066%=      5-min Rain = 0
KTAS 091141Z 18009KT 22/15 A3011 RMK A01 T02190154  RH  067%=      5-min Rain = 0
KTAS 091142Z 17009KT 22/16 A3011 RMK A01 T02200155  RH  066%=      5-min Rain = 0
KTAS 091143Z 17008KT 22/16 A3011 RMK A01 T02220155  RH  066%=      5-min Rain = 0
KTAS 091144Z 17008KT 22/16 A3011 RMK A01 T02220155  RH  066%=      5-min Rain = 0
KTAS 091145Z 17009KT 22/16 A3011 RMK A01 T02210155  RH  066%=      5-min Rain = 0
KTAS 091146Z 17011KT 22/16 A3011 RMK A01 T02210156  RH  066%=      5-min Rain = 0
KTAS 091147Z 17008KT 22/16 A3011 RMK A01 T02230156  RH  066%=      5-min Rain = 0
KTAS 091148Z 17008KT 22/16 A3011 RMK A01 T02240156  RH  066%=      5-min Rain = 0
KTAS 091149Z 17009KT 22/16 A3011 RMK A01 T02240156  RH  066%=      5-min Rain = 0
KTAS 091150Z 17010KT 22/16 A3011 RMK A01 T02240156  RH  066%=      5-min Rain = 0
KTAS 091151Z 18010KT 22/16 A3011 RMK A01 T02240156  RH  065%=      5-min Rain = 0
KTAS 091152Z 17008KT 22/16 A3011 RMK A01 T02240156  RH  065%=      5-min Rain = 0
KTAS 091153Z 17011KT 22/16 A3011 RMK A01 T02240156  RH  066%=      5-min Rain = 0
KTAS 091154Z 18010KT 22/16 A3011 RMK A01 T02240156  RH  065%=      5-min Rain = 0
KTAS 091155Z 17008KT 22/16 A3011 RMK A01 T02240156  RH  065%=      5-min Rain = 0
KTAS 091156Z 17008KT 22/16 A3011 RMK A01 T02230156  RH  066%=      5-min Rain = 0
KTAS 091157Z 17009KT 22/16 A3011 RMK A01 T02230156  RH  066%=      5-min Rain = 0
KTAS 091158Z 17009KT 22/16 A3011 RMK A01 T02220156  RH  066%=      5-min Rain = 0
KTAS 091159Z 17009KT 22/16 A3011 RMK A01 T02220156  RH  066%=      5-min Rain = 0
KTAS 091200Z 17010KT 22/16 A3011 RMK A01 T02220156  RH  066%=      5-min Rain = 0
KTAS 091201Z 17011KT 22/16 A3011 RMK A01 T02220157  RH  066%=      5-min Rain = 0
KTAS 091202Z 17010KT 22/16 A3011 RMK A01 T02230157  RH  066%=      5-min Rain = 0
KTAS 091203Z 17008KT 22/16 A3011 RMK A01 T02240157  RH  066%=      5-min Rain = 0
KTAS 091204Z 17008KT 22/16 A3011 RMK A01 T02230157  RH  066%=      5-min Rain = 0
KTAS 091205Z 17007KT 22/16 A3011 RMK A01 T02210157  RH  067%=      5-min Rain = 0
KTAS 091206Z 17008KT 22/16 A3011 RMK A01 T02200157  RH  067%=      5-min Rain = 0
KTAS 091207Z 17008KT 22/16 A3011 RMK A01 T02180157  RH  068%=      5-min Rain = 0
KTAS 091208Z 17009KT 22/16 A3011 RMK A01 T02180157  RH  068%=      5-min Rain = 0
KTAS 091209Z 17009KT 22/16 A3011 RMK A01 T02180156  RH  068%=      5-min Rain = 0
KTAS 091210Z 17009KT 22/16 A3011 RMK A01 T02180156  RH  068%=      5-min Rain = 0
KTAS 091211Z 17009KT 22/16 A3011 RMK A01 T02170156  RH  068%=      5-min Rain = 0
KTAS 091212Z 17010KT 22/16 A3011 RMK A01 T02180156  RH  068%=      5-min Rain = 0
KTAS 091213Z 17010KT 22/16 A3011 RMK A01 T02180156  RH  068%=      5-min Rain = 0
KTAS 091214Z 16010KT 22/16 A3011 RMK A01 T02190156  RH  067%=      5-min Rain = 0
KTAS 091215Z 17009KT 22/16 A3011 RMK A01 T02190156  RH  067%=      5-min Rain = 0
KTAS 091216Z 16010KT 22/16 A3011 RMK A01 T02180156  RH  068%=      5-min Rain = 0
KTAS 091217Z 17010KT 22/16 A3011 RMK A01 T02190156  RH  068%=      5-min Rain = 0
KTAS 091218Z 17010KT 22/16 A3011 RMK A01 T02200157  RH  067%=      5-min Rain = 0
KTAS 091219Z 17009KT 22/16 A3011 RMK A01 T02210157  RH  067%=      5-min Rain = 0
KTAS 091220Z 16010KT 22/16 A3011 RMK A01 T02220158  RH  067%=      5-min Rain = 0
KTAS 091221Z 17009KT 22/16 A3011 RMK A01 T02240158  RH  066%=      5-min Rain = 0
KTAS 091222Z 16010KT 23/16 A3011 RMK A01 T02250159  RH  066%=      5-min Rain = 0
KTAS 091223Z 16010KT 23/16 A3011 RMK A01 T02260159  RH  066%=      5-min Rain = 0
KTAS 091224Z 16011KT 23/16 A3011 RMK A01 T02260160  RH  066%=      5-min Rain = 0
KTAS 091225Z 17011KT 23/16 A3011 RMK A01 T02270161  RH  066%=      5-min Rain = 0
KTAS 091226Z 16009KT 23/16 A3011 RMK A01 T02280161  RH  066%=      5-min Rain = 0
KTAS 091227Z 17011KT 23/16 A3011 RMK A01 T02290161  RH  066%=      5-min Rain = 0
KTAS 091228Z 16011KT 23/16 A3011 RMK A01 T02300162  RH  065%=      5-min Rain = 0
KTAS 091229Z 17010KT 23/16 A3012 RMK A01 T02310162  RH  065%=      5-min Rain = 0
KTAS 091230Z 17010KT 23/16 A3012 RMK A01 T02310162  RH  065%=      5-min Rain = 0
KTAS 091231Z 17010KT 23/16 A3012 RMK A01 T02310161  RH  065%=      5-min Rain = 0
KTAS 091232Z 17008KT 23/16 A3012 RMK A01 T02310161  RH  065%=      5-min Rain = 0
KTAS 091233Z 17008KT 23/16 A3012 RMK A01 T02310162  RH  065%=      5-min Rain = 0
KTAS 091234Z 17010KT 23/16 A3012 RMK A01 T02310162  RH  065%=      5-min Rain = 0
KTAS 091235Z 17011KT 23/16 A3012 RMK A01 T02310163  RH  065%=      5-min Rain = 0
KTAS 091236Z 17011KT 23/16 A3012 RMK A01 T02320163  RH  065%=      5-min Rain = 0
KTAS 091237Z 17011KT 23/16 A3012 RMK A01 T02320163  RH  065%=      5-min Rain = 0
KTAS 091238Z 17009KT 23/16 A3012 RMK A01 T02320164  RH  065%=      5-min Rain = 0
KTAS 091239Z 17010KT 23/16 A3012 RMK A01 T02320164  RH  066%=      5-min Rain = 0
KTAS 091240Z 17010KT 23/16 A3012 RMK A01 T02320164  RH  065%=      5-min Rain = 0
KTAS 091241Z 17009KT 23/16 A3012 RMK A01 T02320164  RH  065%=      5-min Rain = 0
KTAS 091242Z 16010KT 23/17 A3012 RMK A01 T02330165  RH  066%=      5-min Rain = 0
KTAS 091243Z 17009KT 23/17 A3012 RMK A01 T02330165  RH  066%=      5-min Rain = 0
KTAS 091244Z 17009KT 23/17 A3012 RMK A01 T02330165  RH  066%=      5-min Rain = 0
KTAS 091245Z 17009KT 23/17 A3012 RMK A01 T02330166  RH  066%=      5-min Rain = 0
KTAS 091246Z 17010KT 23/17 A3012 RMK A01 T02330166  RH  066%=      5-min Rain = 0
KTAS 091247Z 17009KT 23/17 A3012 RMK A01 T02330166  RH  066%=      5-min Rain = 0
KTAS 091248Z 16010KT 23/17 A3012 RMK A01 T02340166  RH  066%=      5-min Rain = 0
KTAS 091249Z 16009KT 23/17 A3012 RMK A01 T02340166  RH  066%=      5-min Rain = 0
KTAS 091250Z 16008KT 23/17 A3012 RMK A01 T02340167  RH  066%=      5-min Rain = 0
KTAS 091251Z 17009KT 24/17 A3012 RMK A01 T02350168  RH  066%=      5-min Rain = 0
KTAS 091252Z 16010KT 24/17 A3012 RMK A01 T02350168  RH  066%=      5-min Rain = 0
KTAS 091253Z 16010KT 24/17 A3012 RMK A01 T02360169  RH  066%=      5-min Rain = 0
KTAS 091254Z 16010KT 24/17 A3012 RMK A01 T02370170  RH  066%=      5-min Rain = 0
KTAS 091255Z 17008KT 24/17 A3012 RMK A01 T02380170  RH  066%=      5-min Rain = 0
KTAS 091256Z 17009KT 24/17 A3012 RMK A01 T02390170  RH  066%=      5-min Rain = 0
KTAS 091257Z 17008KT 24/17 A3012 RMK A01 T02390171  RH  066%=      5-min Rain = 0
KTAS 091258Z 17009KT 24/17 A3012 RMK A01 T02390171  RH  065%=      5-min Rain = 0
KTAS 091259Z 16008KT 24/17 A3012 RMK A01 T02390171  RH  066%=      5-min Rain = 0
KTAS 091300Z 17010KT 24/17 A3012 RMK A01 T02400172  RH  066%=      5-min Rain = 0
KTAS 091301Z 17010KT 24/17 A3012 RMK A01 T02410173  RH  065%=      5-min Rain = 0
KTAS 091302Z 16011KT 24/17 A3012 RMK A01 T02420173  RH  065%=      5-min Rain = 0
KTAS 091303Z 16011KT 24/17 A3012 RMK A01 T02430173  RH  065%=      5-min Rain = 0
KTAS 091304Z 16010KT 24/17 A3012 RMK A01 T02430173  RH  065%=      5-min Rain = 0
KTAS 091305Z 16010KT 24/17 A3012 RMK A01 T02430173  RH  065%=      5-min Rain = 0
KTAS 091306Z 16011KT 24/17 A3012 RMK A01 T02430173  RH  065%=      5-min Rain = 0
KTAS 091307Z 17009KT 24/18 A3012 RMK A01 T02440175  RH  065%=      5-min Rain = 0
KTAS 091308Z 17010KT 25/18 A3012 RMK A01 T02460175  RH  065%=      5-min Rain = 0
KTAS 091309Z 17010KT 25/17 A3012 RMK A01 T02460173  RH  064%=      5-min Rain = 0
KTAS 091310Z 17010KT 25/17 A3012 RMK A01 T02460173  RH  064%=      5-min Rain = 0
KTAS 091311Z 17010KT 25/18 A3012 RMK A01 T02460175  RH  064%=      5-min Rain = 0
KTAS 091312Z 17011KT 25/17 A3013 RMK A01 T02470174  RH  064%=      5-min Rain = 0
KTAS 091313Z 16010KT 25/17 A3013 RMK A01 T02470174  RH  064%=      5-min Rain = 0
KTAS 091314Z 16011KT 25/18 A3013 RMK A01 T02470175  RH  064%=      5-min Rain = 0
KTAS 091315Z 17009KT 25/18 A3013 RMK A01 T02470175  RH  064%=      5-min Rain = 0
KTAS 091316Z 16009KT 25/18 A3013 RMK A01 T02480176  RH  064%=      5-min Rain = 0
KTAS 091317Z 17009KT 25/18 A3013 RMK A01 T02500177  RH  064%=      5-min Rain = 0
KTAS 091318Z 17010KT 25/18 A3013 RMK A01 T02510178  RH  064%=      5-min Rain = 0
KTAS 091319Z 17011KT 25/18 A3013 RMK A01 T02510177  RH  063%=      5-min Rain = 0
KTAS 091320Z 16012KT 25/18 A3013 RMK A01 T02520178  RH  063%=      5-min Rain = 0
KTAS 091321Z 17010KT 25/18 A3013 RMK A01 T02530178  RH  063%=      5-min Rain = 0
KTAS 091322Z 16010KT 25/18 A3013 RMK A01 T02530178  RH  063%=      5-min Rain = 0
KTAS 091323Z 16011KT 25/18 A3013 RMK A01 T02530179  RH  063%=      5-min Rain = 0
KTAS 091324Z 17011KT 25/18 A3013 RMK A01 T02540179  RH  063%=      5-min Rain = 0
KTAS 091325Z 16012KT 25/18 A3013 RMK A01 T02540179  RH  063%=      5-min Rain = 0
KTAS 091326Z 15012KT 25/18 A3013 RMK A01 T02530179  RH  064%=      5-min Rain = 0
KTAS 091327Z 17011KT 25/18 A3013 RMK A01 T02530181  RH  064%=      5-min Rain = 0
KTAS 091328Z 16013KT 25/18 A3013 RMK A01 T02520181  RH  065%=      5-min Rain = 0
KTAS 091329Z 17013KT 25/18 A3013 RMK A01 T02500180  RH  065%=      5-min Rain = 0
KTAS 091330Z 17010KT 25/18 A3013 RMK A01 T02490181  RH  066%=      5-min Rain = 0
KTAS 091331Z 16010KT 25/18 A3013 RMK A01 T02490182  RH  066%=      5-min Rain = 0
KTAS 091332Z 17013KT 25/18 A3013 RMK A01 T02490182  RH  066%=      5-min Rain = 0
KTAS 091333Z 17015KT 25/18 A3013 RMK A01 T02490182  RH  066%=      5-min Rain = 0
KTAS 091334Z 17013KT 25/18 A3013 RMK A01 T02480183  RH  067%=      5-min Rain = 0
KTAS 091335Z 18012KT 25/18 A3013 RMK A01 T02480183  RH  067%=      5-min Rain = 0
KTAS 091336Z 16011KT 25/18 A3013 RMK A01 T02490183  RH  067%=      5-min Rain = 0
KTAS 091337Z 17010KT 25/18 A3014 RMK A01 T02490184  RH  067%=      5-min Rain = 0
KTAS 091338Z 17010KT 25/19 A3014 RMK A01 T02510185  RH  067%=      5-min Rain = 0
KTAS 091339Z 17010KT 25/18 A3014 RMK A01 T02520184  RH  066%=      5-min Rain = 0
KTAS 091340Z 17011KT 25/18 A3014 RMK A01 T02520183  RH  066%=      5-min Rain = 0
KTAS 091341Z 17010KT 25/18 A3014 RMK A01 T02510183  RH  066%=      5-min Rain = 0
KTAS 091342Z 17010KT 25/18 A3014 RMK A01 T02520184  RH  066%=      5-min Rain = 0
KTAS 091343Z 17010KT 25/18 A3014 RMK A01 T02530184  RH  066%=      5-min Rain = 0
KTAS 091344Z 17010KT 25/18 A3014 RMK A01 T02530183  RH  065%=      5-min Rain = 0
KTAS 091345Z 17011KT 25/18 A3014 RMK A01 T02520183  RH  065%=      5-min Rain = 0
KTAS 091346Z 17011KT 25/18 A3014 RMK A01 T02510183  RH  066%=      5-min Rain = 0
KTAS 091347Z 17012KT 25/18 A3014 RMK A01 T02500182  RH  066%=      5-min Rain = 0
KTAS 091348Z 17012KT 25/18 A3014 RMK A01 T02490182  RH  067%=      5-min Rain = 0
KTAS 091349Z 17009KT 25/18 A3014 RMK A01 T02480183  RH  067%=      5-min Rain = 0
KTAS 091350Z 17008KT 25/18 A3014 RMK A01 T02480184  RH  067%=      5-min Rain = 0
KTAS 091351Z 17008KT 25/18 A3014 RMK A01 T02480184  RH  068%=      5-min Rain = 0
KTAS 091352Z 17011KT 25/18 A3014 RMK A01 T02480184  RH  068%=      5-min Rain = 0
KTAS 091353Z 17012KT 25/18 A3014 RMK A01 T02470183  RH  068%=      5-min Rain = 0
KTAS 091354Z 17013KT 25/18 A3014 RMK A01 T02460184  RH  068%=      5-min Rain = 0
KTAS 091355Z 17011KT 25/18 A3014 RMK A01 T02460184  RH  068%=      5-min Rain = 0
KTAS 091356Z 17013KT 25/18 A3014 RMK A01 T02460184  RH  068%=      5-min Rain = 0
KTAS 091357Z 17013KT 25/18 A3014 RMK A01 T02460184  RH  068%=      5-min Rain = 0
KTAS 091358Z 17011KT 25/18 A3014 RMK A01 T02460184  RH  069%=      5-min Rain = 0
KTAS 091359Z 17010KT 25/19 A3014 RMK A01 T02460185  RH  069%=      5-min Rain = 0
KTAS 091400Z 17010KT 25/19 A3014 RMK A01 T02460185  RH  069%=      5-min Rain = 0
KTAS 091401Z 16011KT 25/19 A3014 RMK A01 T02470185  RH  069%=      5-min Rain = 0
KTAS 091402Z 17010KT 25/19 A3014 RMK A01 T02460185  RH  068%=      5-min Rain = 0
KTAS 091403Z 16008KT 25/19 A3014 RMK A01 T02460185  RH  069%=      5-min Rain = 0
KTAS 091404Z 17011KT 25/19 A3014 RMK A01 T02460185  RH  069%=      5-min Rain = 0
KTAS 091405Z 17010KT 25/19 A3014 RMK A01 T02470185  RH  069%=      5-min Rain = 0
KTAS 091406Z 17010KT 25/19 A3014 RMK A01 T02480185  RH  068%=      5-min Rain = 0
KTAS 091407Z 17008KT 25/19 A3014 RMK A01 T02490187  RH  068%=      5-min Rain = 0
KTAS 091408Z 17010KT 25/19 A3014 RMK A01 T02510187  RH  067%=      5-min Rain = 0
KTAS 091409Z 17008KT 25/19 A3014 RMK A01 T02520187  RH  067%=      5-min Rain = 0
KTAS 091410Z 17009KT 25/19 A3014 RMK A01 T02540188  RH  067%=      5-min Rain = 0
KTAS 091411Z 17009KT 26/19 A3014 RMK A01 T02550187  RH  066%=      5-min Rain = 0
KTAS 091412Z 17010KT 26/19 A3014 RMK A01 T02560188  RH  066%=      5-min Rain = 0
KTAS 091413Z 17010KT 26/19 A3014 RMK A01 T02580189  RH  066%=      5-min Rain = 0
KTAS 091414Z 17010KT 26/19 A3014 RMK A01 T02580187  RH  065%=      5-min Rain = 0
KTAS 091415Z 17010KT 26/19 A3014 RMK A01 T02580188  RH  065%=      5-min Rain = 0
KTAS 091416Z 16011KT 26/19 A3014 RMK A01 T02590188  RH  065%=      5-min Rain = 0
KTAS 091417Z 17010KT 26/19 A3014 RMK A01 T02600189  RH  065%=      5-min Rain = 0
KTAS 091418Z 17011KT 26/19 A3014 RMK A01 T02610188  RH  064%=      5-min Rain = 0
KTAS 091419Z 17012KT 26/19 A3014 RMK A01 T02610187  RH  064%=      5-min Rain = 0
KTAS 091420Z 16012KT 26/19 A3014 RMK A01 T02600187  RH  064%=      5-min Rain = 0
KTAS 091421Z 17012KT 26/19 A3014 RMK A01 T02610187  RH  064%=      5-min Rain = 0
KTAS 091422Z 17011KT 26/19 A3014 RMK A01 T02600186  RH  064%=      5-min Rain = 0
KTAS 091423Z 17012KT 26/19 A3014 RMK A01 T02600187  RH  064%=      5-min Rain = 0
KTAS 091424Z 16012KT 26/19 A3014 RMK A01 T02590186  RH  064%=      5-min Rain = 0
KTAS 091425Z 16010KT 26/19 A3014 RMK A01 T02600187  RH  064%=      5-min Rain = 0
KTAS 091426Z 17009KT 26/19 A3014 RMK A01 T02630190  RH  064%=      5-min Rain = 0
KTAS 091427Z 17012KT 27/19 A3014 RMK A01 T02650189  RH  063%=      5-min Rain = 0
KTAS 091428Z 16012KT 26/19 A3014 RMK A01 T02640187  RH  063%=      5-min Rain = 0
KTAS 091429Z 16012KT 26/19 A3014 RMK A01 T02640188  RH  063%=      5-min Rain = 0
KTAS 091430Z 17013KT 26/19 A3014 RMK A01 T02640187  RH  063%=      5-min Rain = 0
KTAS 091431Z 16012KT 26/19 A3015 RMK A01 T02640188  RH  063%=      5-min Rain = 0
KTAS 091432Z 17012KT 26/19 A3015 RMK A01 T02630187  RH  063%=      5-min Rain = 0
KTAS 091433Z 17009KT 26/19 A3015 RMK A01 T02630189  RH  064%=      5-min Rain = 0
KTAS 091434Z 17010KT 27/19 A3015 RMK A01 T02660190  RH  063%=      5-min Rain = 0
KTAS 091435Z 18010G15KT 27/19 A3015 RMK A01 T02660189  RH  062%=      5-min Rain = 0
KTAS 091436Z 18013KT 27/19 A3015 RMK A01 T02670188  RH  062%=      5-min Rain = 0
KTAS 091437Z 17013KT 27/19 A3014 RMK A01 T02660187  RH  062%=      5-min Rain = 0
KTAS 091438Z 18011KT 27/19 A3014 RMK A01 T02650187  RH  062%=      5-min Rain = 0
KTAS 091439Z 18012KT 27/19 A3014 RMK A01 T02660188  RH  062%=      5-min Rain = 0
KTAS 091440Z 17011KT 27/19 A3014 RMK A01 T02670189  RH  062%=      5-min Rain = 0
KTAS 091441Z 17013KT 27/19 A3014 RMK A01 T02680188  RH  061%=      5-min Rain = 0
KTAS 091442Z 17011KT 27/19 A3014 RMK A01 T02680188  RH  061%=      5-min Rain = 0
KTAS 091443Z 16011KT 27/19 A3014 RMK A01 T02690189  RH  062%=      5-min Rain = 0
KTAS 091444Z 17010KT 27/19 A3015 RMK A01 T02690190  RH  062%=      5-min Rain = 0
KTAS 091445Z 16012KT 27/19 A3015 RMK A01 T02700190  RH  062%=      5-min Rain = 0
KTAS 091446Z 16013KT 27/19 A3014 RMK A01 T02690189  RH  061%=      5-min Rain = 0
KTAS 091447Z 17012KT 27/19 A3014 RMK A01 T02690189  RH  061%=      5-min Rain = 0
KTAS 091448Z 17013KT 27/19 A3014 RMK A01 T02690189  RH  061%=      5-min Rain = 0
KTAS 091449Z 17013KT 27/19 A3014 RMK A01 T02680189  RH  062%=      5-min Rain = 0
KTAS 091450Z 18013KT 27/19 A3014 RMK A01 T02680188  RH  062%=      5-min Rain = 0
KTAS 091451Z 17010KT 27/19 A3014 RMK A01 T02680188  RH  061%=      5-min Rain = 0
KTAS 091452Z 16011KT 27/19 A3014 RMK A01 T02690190  RH  062%=      5-min Rain = 0
KTAS 091453Z 16013KT 27/19 A3014 RMK A01 T02700191  RH  062%=      5-min Rain = 0
KTAS 091454Z 17014KT 27/19 A3014 RMK A01 T02690188  RH  061%=      5-min Rain = 0
KTAS 091455Z 17011KT 27/19 A3014 RMK A01 T02680189  RH  062%=      5-min Rain = 0
KTAS 091456Z 15011KT 27/19 A3014 RMK A01 T02680190  RH  062%=      5-min Rain = 0
KTAS 091457Z 17011KT 27/19 A3014 RMK A01 T02710191  RH  062%=      5-min Rain = 0
KTAS 091458Z 17009KT 28/19 A3014 RMK A01 T02750192  RH  061%=      5-min Rain = 0
KTAS 091459Z 17013KT 28/19 A3014 RMK A01 T02780192  RH  059%=      5-min Rain = 0
KTAS 091500Z 17013KT 28/19 A3014 RMK A01 T02780190  RH  059%=      5-min Rain = 0
KTAS 091501Z 18013KT 28/19 A3014 RMK A01 T02760189  RH  059%=      5-min Rain = 0
KTAS 091502Z 18014KT 28/19 A3014 RMK A01 T02760189  RH  059%=      5-min Rain = 0
KTAS 091503Z 18011KT 28/19 A3014 RMK A01 T02760190  RH  060%=      5-min Rain = 0
KTAS 091504Z 16012KT 28/19 A3014 RMK A01 T02760191  RH  060%=      5-min Rain = 0
KTAS 091505Z 17010KT 27/19 A3014 RMK A01 T02740190  RH  060%=      5-min Rain = 0
KTAS 091506Z 17011KT 27/19 A3014 RMK A01 T02740191  RH  061%=      5-min Rain = 0
KTAS 091507Z 17012KT 28/19 A3014 RMK A01 T02750190  RH  060%=      5-min Rain = 0
KTAS 091508Z 17013KT 28/19 A3014 RMK A01 T02760189  RH  059%=      5-min Rain = 0
KTAS 091509Z 17013KT 28/19 A3014 RMK A01 T02760189  RH  059%=      5-min Rain = 0
KTAS 091510Z 16012KT 28/19 A3014 RMK A01 T02750188  RH  059%=      5-min Rain = 0
KTAS 091511Z 17013KT 28/19 A3014 RMK A01 T02760188  RH  059%=      5-min Rain = 0
KTAS 091512Z 16014KT 28/19 A3014 RMK A01 T02760188  RH  059%=      5-min Rain = 0
KTAS 091513Z 16013KT 28/19 A3014 RMK A01 T02760188  RH  058%=      5-min Rain = 0
KTAS 091514Z 16014KT 28/19 A3014 RMK A01 T02760188  RH  059%=      5-min Rain = 0
KTAS 091515Z 17012KT 28/19 A3014 RMK A01 T02750189  RH  059%=      5-min Rain = 0
KTAS 091516Z 18013KT 28/19 A3014 RMK A01 T02760188  RH  059%=      5-min Rain = 0
KTAS 091517Z 18012KT 28/19 A3014 RMK A01 T02770188  RH  058%=      5-min Rain = 0
KTAS 091518Z 17011KT 28/19 A3014 RMK A01 T02780188  RH  058%=      5-min Rain = 0
KTAS 091519Z 17011KT 28/19 A3014 RMK A01 T02780191  RH  059%=      5-min Rain = 0
KTAS 091520Z 16013KT 28/19 A3014 RMK A01 T02810191  RH  058%=      5-min Rain = 0
KTAS 091521Z 18016KT 28/19 A3014 RMK A01 T02820188  RH  057%=      5-min Rain = 0
KTAS 091522Z 18016KT 28/18 A3014 RMK A01 T02820184  RH  055%=      5-min Rain = 0
KTAS 091523Z 18016KT 28/19 A3014 RMK A01 T02810185  RH  056%=      5-min Rain = 0
KTAS 091524Z 17013G18KT 28/19 A3014 RMK A01 T02810187  RH  057%=      5-min Rain = 0
KTAS 091525Z 16013KT 28/19 A3014 RMK A01 T02840190  RH  057%=      5-min Rain = 0
KTAS 091526Z 16014KT 28/19 A3013 RMK A01 T02840190  RH  057%=      5-min Rain = 0
KTAS 091527Z 16015KT 28/19 A3013 RMK A01 T02840191  RH  057%=      5-min Rain = 0
KTAS 091528Z 17016KT 28/19 A3013 RMK A01 T02840189  RH  056%=      5-min Rain = 0
KTAS 091529Z 18014KT 28/19 A3013 RMK A01 T02810188  RH  057%=      5-min Rain = 0
KTAS 091530Z 16014KT 28/19 A3013 RMK A01 T02810189  RH  057%=      5-min Rain = 0
KTAS 091531Z 16015KT 28/19 A3013 RMK A01 T02820190  RH  057%=      5-min Rain = 0
KTAS 091532Z 15016KT 28/19 A3013 RMK A01 T02830187  RH  056%=      5-min Rain = 0
KTAS 091533Z 16016KT 28/19 A3013 RMK A01 T02820187  RH  056%=      5-min Rain = 0
KTAS 091534Z 17016KT 28/19 A3013 RMK A01 T02820186  RH  056%=      5-min Rain = 0
KTAS 091535Z 17014KT 28/19 A3013 RMK A01 T02820187  RH  056%=      5-min Rain = 0
KTAS 091536Z 16014KT 28/19 A3013 RMK A01 T02830188  RH  056%=      5-min Rain = 0
KTAS 091537Z 17017KT 29/19 A3013 RMK A01 T02850187  RH  055%=      5-min Rain = 0
KTAS 091538Z 16018KT 28/19 A3013 RMK A01 T02830186  RH  056%=      5-min Rain = 0
KTAS 091539Z 17015KT 28/19 A3013 RMK A01 T02820187  RH  056%=      5-min Rain = 0
KTAS 091540Z 17012G19KT 29/19 A3013 RMK A01 T02860188  RH  056%=      5-min Rain = 0
KTAS 091541Z 17017KT 29/18 A3013 RMK A01 T02850184  RH  054%=      5-min Rain = 0
KTAS 091542Z 18017KT 28/18 A3013 RMK A01 T02830184  RH  055%=      5-min Rain = 0
KTAS 091543Z 18015KT 28/18 A3013 RMK A01 T02820183  RH  055%=      5-min Rain = 0
KTAS 091544Z 18015KT 28/18 A3013 RMK A01 T02840184  RH  055%=      5-min Rain = 0
KTAS 091545Z 16013KT 29/18 A3013 RMK A01 T02860184  RH  054%=      5-min Rain = 0
KTAS 091546Z 17014G19KT 29/19 A3013 RMK A01 T02870185  RH  054%=      5-min Rain = 0
KTAS 091547Z 17016KT 29/19 A3013 RMK A01 T02880186  RH  054%=      5-min Rain = 0
KTAS 091548Z 17017KT 29/19 A3013 RMK A01 T02870186  RH  054%=      5-min Rain = 0
KTAS 091549Z 18015KT 29/19 A3013 RMK A01 T02870186  RH  054%=      5-min Rain = 0
KTAS 091550Z 17016KT 29/19 A3013 RMK A01 T02870186  RH  054%=      5-min Rain = 0
KTAS 091551Z 16018KT 29/19 A3013 RMK A01 T02870186  RH  054%=      5-min Rain = 0
KTAS 091552Z 16018KT 29/18 A3013 RMK A01 T02860183  RH  054%=      5-min Rain = 0
KTAS 091553Z 17014KT 29/19 A3013 RMK A01 T02880185  RH  054%=      5-min Rain = 0
KTAS 091554Z 18015KT 29/19 A3013 RMK A01 T02900186  RH  053%=      5-min Rain = 0
KTAS 091555Z 17014KT 29/19 A3013 RMK A01 T02890186  RH  054%=      5-min Rain = 0
KTAS 091556Z 17015KT 29/19 A3013 RMK A01 T02890186  RH  054%=      5-min Rain = 0
KTAS 091557Z 18012G17KT 29/19 A3013 RMK A01 T02890186  RH  054%=      5-min Rain = 0
KTAS 091558Z 17014G19KT 29/19 A3013 RMK A01 T02930186  RH  053%=      5-min Rain = 0
KTAS 091559Z 17017KT 30/19 A3013 RMK A01 T02950186  RH  052%=      5-min Rain = 0
KTAS 091600Z 17014KT 29/19 A3013 RMK A01 T02920186  RH  053%=      5-min Rain = 0
KTAS 091601Z 18013KT 29/19 A3013 RMK A01 T02930188  RH  053%=      5-min Rain = 0
KTAS 091602Z 17013KT 30/19 A3013 RMK A01 T02970188  RH  052%=      5-min Rain = 0
KTAS 091603Z 16016KT 30/19 A3013 RMK A01 T02950186  RH  052%=      5-min Rain = 0
KTAS 091604Z 17014G19KT 30/19 A3013 RMK A01 T02950188  RH  053%=      5-min Rain = 0
KTAS 091605Z 17014KT 30/19 A3013 RMK A01 T02970189  RH  053%=      5-min Rain = 0
KTAS 091606Z 16015KT 30/19 A3013 RMK A01 T02960188  RH  052%=      5-min Rain = 0
KTAS 091607Z 16014KT 29/19 A3013 RMK A01 T02940185  RH  052%=      5-min Rain = 0
KTAS 091608Z 16015KT 30/19 A3013 RMK A01 T02950185  RH  052%=      5-min Rain = 0
KTAS 091609Z 17015KT 29/19 A3013 RMK A01 T02940186  RH  052%=      5-min Rain = 0
KTAS 091610Z 16016KT 30/19 A3013 RMK A01 T02950187  RH  052%=      5-min Rain = 0
KTAS 091611Z 16016KT 30/19 A3013 RMK A01 T02950185  RH  052%=      5-min Rain = 0
KTAS 091612Z 16014G19KT 30/18 A3013 RMK A01 T02950184  RH  051%=      5-min Rain = 0
KTAS 091613Z 17018KT 30/19 A3013 RMK A01 T02960185  RH  051%=      5-min Rain = 0
KTAS 091614Z 16016KT 30/18 A3013 RMK A01 T02960184  RH  051%=      5-min Rain = 0
KTAS 091615Z 17015KT 30/18 A3013 RMK A01 T02950182  RH  051%=      5-min Rain = 0
KTAS 091616Z 17015KT 30/18 A3013 RMK A01 T02950184  RH  051%=      5-min Rain = 0
KTAS 091617Z 17013G19KT 30/18 A3013 RMK A01 T02950184  RH  051%=      5-min Rain = 0
KTAS 091618Z 17014G19KT 30/18 A3013 RMK A01 T02950183  RH  051%=      5-min Rain = 0
KTAS 091619Z 16015KT 30/18 A3013 RMK A01 T02950183  RH  051%=      5-min Rain = 0
KTAS 091620Z 16017KT 30/18 A3013 RMK A01 T02960184  RH  051%=      5-min Rain = 0
KTAS 091621Z 17012KT 30/19 A3013 RMK A01 T02960185  RH  051%=      5-min Rain = 0
KTAS 091622Z 17014KT 30/19 A3013 RMK A01 T02980186  RH  051%=      5-min Rain = 0
KTAS 091623Z 17015KT 30/19 A3013 RMK A01 T02990186  RH  051%=      5-min Rain = 0
KTAS 091624Z 17013KT 30/19 A3013 RMK A01 T02980186  RH  051%=      5-min Rain = 0
KTAS 091625Z 18013KT 30/19 A3013 RMK A01 T02990187  RH  051%=      5-min Rain = 0
KTAS 091626Z 16016KT 30/19 A3013 RMK A01 T03000185  RH  050%=      5-min Rain = 0
KTAS 091627Z 16016KT 30/18 A3013 RMK A01 T03020182  RH  049%=      5-min Rain = 0
KTAS 091628Z 17015KT 30/18 A3012 RMK A01 T03000179  RH  049%=      5-min Rain = 0
KTAS 091629Z 18016KT 30/18 A3012 RMK A01 T03000181  RH  049%=      5-min Rain = 0
KTAS 091630Z 17013G18KT 30/18 A3012 RMK A01 T03000181  RH  049%=      5-min Rain = 0
KTAS 091631Z 17014KT 30/18 A3012 RMK A01 T03020181  RH  048%=      5-min Rain = 0
KTAS 091632Z 17014KT 30/18 A3012 RMK A01 T03010181  RH  049%=      5-min Rain = 0
KTAS 091633Z 17015KT 30/19 A3012 RMK A01 T03000185  RH  050%=      5-min Rain = 0
KTAS 091634Z 18014KT 30/19 A3012 RMK A01 T03030185  RH  049%=      5-min Rain = 0
KTAS 091635Z 17015KT 30/18 A3012 RMK A01 T03030184  RH  049%=      5-min Rain = 0
KTAS 091636Z 17014KT 30/18 A3012 RMK A01 T03020184  RH  049%=      5-min Rain = 0
KTAS 091637Z 18015KT 30/19 A3012 RMK A01 T03030185  RH  049%=      5-min Rain = 0
KTAS 091638Z 17015KT 30/18 A3012 RMK A01 T03030181  RH  048%=      5-min Rain = 0
KTAS 091639Z 17014KT 30/18 A3012 RMK A01 T03030181  RH  048%=      5-min Rain = 0
KTAS 091640Z 18015KT 30/18 A3012 RMK A01 T03040181  RH  048%=      5-min Rain = 0
KTAS 091641Z 17015KT 31/18 A3012 RMK A01 T03050181  RH  048%=      5-min Rain = 0
KTAS 091642Z 17015KT 30/18 A3012 RMK A01 T03030181  RH  048%=      5-min Rain = 0
KTAS 091643Z 17015KT 30/18 A3012 RMK A01 T03030181  RH  048%=      5-min Rain = 0
KTAS 091644Z 18014KT 31/18 A3012 RMK A01 T03050181  RH  048%=      5-min Rain = 0
KTAS 091645Z 18015G20KT 31/18 A3012 RMK A01 T03060179  RH  047%=      5-min Rain = 0
KTAS 091646Z 18014G19KT 31/18 A3012 RMK A01 T03060181  RH  047%=      5-min Rain = 0
KTAS 091647Z 18017KT 31/18 A3012 RMK A01 T03060181  RH  047%=      5-min Rain = 0
KTAS 091648Z 18015KT 31/18 A3012 RMK A01 T03060180  RH  047%=      5-min Rain = 0
KTAS 091649Z 17015KT 30/18 A3012 RMK A01 T03040181  RH  048%=      5-min Rain = 0
KTAS 091650Z 17017KT 30/18 A3012 RMK A01 T03020182  RH  049%=      5-min Rain = 0
KTAS 091651Z 16016KT 30/18 A3012 RMK A01 T03020181  RH  048%=      5-min Rain = 0
KTAS 091652Z 16015KT 30/18 A3012 RMK A01 T03040180  RH  047%=      5-min Rain = 0
KTAS 091653Z 17016KT 31/18 A3012 RMK A01 T03050179  RH  047%=      5-min Rain = 0
KTAS 091654Z 17016KT 31/18 A3012 RMK A01 T03060180  RH  047%=      5-min Rain = 0
KTAS 091655Z 17015KT 31/18 A3012 RMK A01 T03070180  RH  047%=      5-min Rain = 0
KTAS 091656Z 17014KT 31/18 A3012 RMK A01 T03080179  RH  046%=      5-min Rain = 0
KTAS 091657Z 16016KT 31/18 A3012 RMK A01 T03060179  RH  047%=      5-min Rain = 0
KTAS 091658Z 17015KT 31/18 A3012 RMK A01 T03060180  RH  047%=      5-min Rain = 0
KTAS 091659Z 17012KT 31/18 A3012 RMK A01 T03060180  RH  047%=      5-min Rain = 0
KTAS 091700Z 17011KT 31/18 A3012 RMK A01 T03070182  RH  047%=      5-min Rain = 0
KTAS 091701Z 17012KT 31/18 A3012 RMK A01 T03080184  RH  048%=      5-min Rain = 0
KTAS 091702Z 18014KT 31/18 A3012 RMK A01 T03110183  RH  046%=      5-min Rain = 0
KTAS 091703Z 18011KT 31/18 A3012 RMK A01 T03100181  RH  046%=      5-min Rain = 0
KTAS 091704Z 17012KT 31/18 A3012 RMK A01 T03090182  RH  047%=      5-min Rain = 0
KTAS 091705Z 16014KT 31/18 A3012 RMK A01 T03110183  RH  047%=      5-min Rain = 0
KTAS 091706Z 16012KT 31/18 A3012 RMK A01 T03100182  RH  046%=      5-min Rain = 0
KTAS 091707Z 15011G17KT 31/18 A3012 RMK A01 T03090181  RH  046%=      5-min Rain = 0
KTAS 091708Z 17013KT 31/18 A3012 RMK A01 T03090182  RH  047%=      5-min Rain = 0
KTAS 091709Z 17011G16KT 31/18 A3012 RMK A01 T03110182  RH  046%=      5-min Rain = 0
KTAS 091710Z 17012KT 32/18 A3012 RMK A01 T03150183  RH  045%=      5-min Rain = 0
KTAS 091711Z 16011KT 32/18 A3012 RMK A01 T03160182  RH  045%=      5-min Rain = 0
KTAS 091712Z 16015KT 32/18 A3012 RMK A01 T03170181  RH  044%=      5-min Rain = 0
KTAS 091713Z 17013KT 31/18 A3012 RMK A01 T03140180  RH  045%=      5-min Rain = 0
KTAS 091714Z 17013KT 31/18 A3012 RMK A01 T03120180  RH  045%=      5-min Rain = 0
KTAS 091715Z 18014KT 31/18 A3012 RMK A01 T03120180  RH  046%=      5-min Rain = 0
KTAS 091716Z 19013KT 31/18 A3012 RMK A01 T03100175  RH  044%=      5-min Rain = 0
KTAS 091717Z 18011KT 31/18 A3012 RMK A01 T03110177  RH  045%=      5-min Rain = 0
KTAS 091718Z 17012KT 32/18 A3012 RMK A01 T03150179  RH  044%=      5-min Rain = 0
KTAS 091719Z 17013KT 32/18 A3012 RMK A01 T03160180  RH  044%=      5-min Rain = 0
KTAS 091720Z 17016KT 32/18 A3012 RMK A01 T03170178  RH  044%=      5-min Rain = 0
KTAS 091721Z 17014KT 32/17 A3012 RMK A01 T03150173  RH  043%=      5-min Rain = 0
KTAS 091722Z 16016KT 32/17 A3012 RMK A01 T03150170  RH  042%=      5-min Rain = 0
KTAS 091723Z 17013KT 32/17 A3012 RMK A01 T03150173  RH  043%=      5-min Rain = 0
KTAS 091724Z 17012KT 32/18 A3012 RMK A01 T03190178  RH  043%=      5-min Rain = 0
KTAS 091725Z 17012KT 32/18 A3012 RMK A01 T03190179  RH  043%=      5-min Rain = 0
KTAS 091726Z 17008KT 32/18 A3011 RMK A01 T03170179  RH  044%=      5-min Rain = 0
KTAS 091727Z 16009KT 32/18 A3011 RMK A01 T03150178  RH  044%=      5-min Rain = 0
KTAS 091728Z 18012G18KT 32/18 A3011 RMK A01 T03150177  RH  044%=      5-min Rain = 0
KTAS 091729Z 19014KT 32/17 A3011 RMK A01 T03190172  RH  041%=      5-min Rain = 0
KTAS 091730Z 19014G19KT 32/17 A3011 RMK A01 T03210172  RH  041%=      5-min Rain = 0
KTAS 091731Z 19015KT 32/17 A3011 RMK A01 T03190172  RH  042%=      5-min Rain = 0
KTAS 091732Z 17014KT 32/18 A3011 RMK A01 T03210176  RH  042%=      5-min Rain = 0
KTAS 091733Z 17014KT 32/17 A3011 RMK A01 T03220174  RH  041%=      5-min Rain = 0
KTAS 091734Z 18013KT 32/18 A3011 RMK A01 T03190177  RH  043%=      5-min Rain = 0
KTAS 091735Z 16012KT 32/18 A3011 RMK A01 T03190181  RH  044%=      5-min Rain = 0
KTAS 091736Z 16012KT 32/18 A3011 RMK A01 T03200179  RH  043%=      5-min Rain = 0
KTAS 091737Z 16009KT 32/18 A3011 RMK A01 T03200181  RH  044%=      5-min Rain = 0
KTAS 091738Z 16011KT 32/18 A3011 RMK A01 T03190181  RH  044%=      5-min Rain = 0
KTAS 091739Z 17013KT 32/18 A3011 RMK A01 T03210183  RH  044%=      5-min Rain = 0
KTAS 091740Z 16013KT 32/18 A3011 RMK A01 T03230179  RH  042%=      5-min Rain = 0
KTAS 091741Z 16011KT 33/18 A3011 RMK A01 T03250177  RH  041%=      5-min Rain = 0
KTAS 091742Z 16010KT 32/18 A3011 RMK A01 T03240176  RH  041%=      5-min Rain = 0
KTAS 091743Z 15013KT 32/18 A301 RMK A01 T03220177  RH  042%=      5-min Rain = 0
KTAS 091744Z 16014KT 32/18 A301 RMK A01 T03210180  RH  043%=      5-min Rain = 0
KTAS 091745Z 17015KT 32/18 A301 RMK A01 T03230177  RH  042%=      5-min Rain = 0
KTAS 091746Z 17011KT 32/18 A301 RMK A01 T03210176  RH  042%=      5-min Rain = 0
KTAS 091747Z 17010KT 32/18 A301 RMK A01 T03220178  RH  042%=      5-min Rain = 0
KTAS 091748Z 17012KT 32/18 A301 RMK A01 T03230177  RH  042%=      5-min Rain = 0
KTAS 091749Z 16013KT 33/17 A301 RMK A01 T03250172  RH  040%=      5-min Rain = 0
KTAS 091750Z 16012KT 32/17 A301 RMK A01 T03230173  RH  041%=      5-min Rain = 0
KTAS 091751Z 17012KT 32/18 A301 RMK A01 T03220175  RH  041%=      5-min Rain = 0
KTAS 091752Z 18013KT 33/17 A301 RMK A01 T03270172  RH  040%=      5-min Rain = 0
KTAS 091753Z 18014KT 33/17 A301 RMK A01 T03290167  RH  038%=      5-min Rain = 0
KTAS 091754Z 17013KT 33/17 A301 RMK A01 T03260167  RH  038%=      5-min Rain = 0
KTAS 091755Z 17012KT 33/17 A301 RMK A01 T03250169  RH  039%=      5-min Rain = 0
KTAS 091756Z 17013KT 33/17 A301 RMK A01 T03260170  RH  039%=      5-min Rain = 0
KTAS 091757Z 17014KT 32/17 A301 RMK A01 T03240171  RH  040%=      5-min Rain = 0
KTAS 091758Z 18013KT 32/17 A301 RMK A01 T03220169  RH  040%=      5-min Rain = 0
KTAS 091759Z 19012G17KT 32/17 A301 RMK A01 T03220167  RH  039%=      5-min Rain = 0
KTAS 091800Z 19016KT 33/17 A301 RMK A01 T03260168  RH  039%=      5-min Rain = 0
KTAS 091801Z 19014G19KT 33/17 A301 RMK A01 T03260169  RH  039%=      5-min Rain = 0
KTAS 091802Z 18013KT 33/17 A301 RMK A01 T03270170  RH  039%=      5-min Rain = 0
KTAS 091803Z 18014KT 33/17 A301 RMK A01 T03260168  RH  039%=      5-min Rain = 0
KTAS 091804Z 18014G20KT 33/17 A301 RMK A01 T03250168  RH  039%=      5-min Rain = 0
KTAS 091805Z 18015KT 33/17 A301 RMK A01 T03280167  RH  038%=      5-min Rain = 0
KTAS 091806Z 17012KT 33/17 A301 RMK A01 T03310170  RH  038%=      5-min Rain = 0
KTAS 091807Z 17010G15KT 33/17 A301 RMK A01 T03300169  RH  038%=      5-min Rain = 0
KTAS 091808Z 17013KT 33/17 A301 RMK A01 T03330169  RH  038%=      5-min Rain = 0
KTAS 091809Z 16012KT 33/17 A301 RMK A01 T03340168  RH  037%=      5-min Rain = 0
KTAS 091810Z 16015KT 34/17 A301 RMK A01 T03350169  RH  037%=      5-min Rain = 0
KTAS 091811Z 16013KT 33/17 A301 RMK A01 T03310168  RH  038%=      5-min Rain = 0
KTAS 091812Z 17014KT 33/17 A301 RMK A01 T03300166  RH  038%=      5-min Rain = 0
KTAS 091813Z 17014KT 33/17 A301 RMK A01 T03290166  RH  038%=      5-min Rain = 0
KTAS 091814Z 18012KT 33/17 A301 RMK A01 T03310169  RH  038%=      5-min Rain = 0
KTAS 091815Z 17010KT 33/17 A301 RMK A01 T03330167  RH  037%=      5-min Rain = 0
KTAS 091816Z 18010KT 33/17 A301 RMK A01 T03310167  RH  038%=      5-min Rain = 0
KTAS 091817Z 16012KT 33/17 A301 RMK A01 T03310169  RH  038%=      5-min Rain = 0
KTAS 091818Z 17012KT 33/17 A301 RMK A01 T03330169  RH  038%=      5-min Rain = 0
KTAS 091819Z 15012KT 33/17 A301 RMK A01 T03310169  RH  038%=      5-min Rain = 0
KTAS 091820Z 16014KT 33/17 A301 RMK A01 T03310167  RH  037%=      5-min Rain = 0
KTAS 091821Z 16011G16KT 33/17 A301 RMK A01 T03320165  RH  037%=      5-min Rain = 0
KTAS 091822Z 15014KT 33/16 A301 RMK A01 T03320164  RH  037%=      5-min Rain = 0
KTAS 091823Z 15014KT 33/16 A301 RMK A01 T03300157  RH  036%=      5-min Rain = 0
KTAS 091824Z 16014KT 33/16 A301 RMK A01 T03300157  RH  035%=      5-min Rain = 0
KTAS 091825Z 17010KT 33/15 A301 RMK A01 T03320154  RH  034%=      5-min Rain = 0
KTAS 091826Z 18012KT 33/15 A301 RMK A01 T03330153  RH  034%=      5-min Rain = 0
KTAS 091827Z 18013KT 33/16 A301 RMK A01 T03310159  RH  036%=      5-min Rain = 0
KTAS 091828Z 20009KT 33/16 A301 RMK A01 T03330163  RH  036%=      5-min Rain = 0
KTAS 091829Z 19012KT 33/16 A3009 RMK A01 T03330163  RH  036%=      5-min Rain = 0
KTAS 091830Z 17015KT 33/16 A3009 RMK A01 T03330161  RH  036%=      5-min Rain = 0
KTAS 091831Z 16013G18KT 33/16 A3009 RMK A01 T03340162  RH  036%=      5-min Rain = 0
KTAS 091832Z 16013G18KT 34/16 A3009 RMK A01 T03350158  RH  035%=      5-min Rain = 0
KTAS 091833Z 17015KT 33/16 A3009 RMK A01 T03340157  RH  035%=      5-min Rain = 0
KTAS 091834Z 16015KT 33/15 A3009 RMK A01 T03330150  RH  033%=      5-min Rain = 0
KTAS 091835Z 16013KT 33/15 A3009 RMK A01 T03330146  RH  033%=      5-min Rain = 0
KTAS 091836Z 16013KT 33/14 A3009 RMK A01 T03320143  RH  032%=      5-min Rain = 0
KTAS 091837Z 16008KT 33/15 A3009 RMK A01 T03330146  RH  032%=      5-min Rain = 0
KTAS 091838Z 16009KT 33/15 A3009 RMK A01 T03330152  RH  034%=      5-min Rain = 0
KTAS 091839Z 16010KT 34/16 A3009 RMK A01 T03370164  RH  036%=      5-min Rain = 0
KTAS 091840Z 18011KT 34/17 A3009 RMK A01 T03390165  RH  035%=      5-min Rain = 0
KTAS 091841Z 18009KT 34/16 A3009 RMK A01 T03360163  RH  036%=      5-min Rain = 0
KTAS 091842Z 18008KT 34/16 A3009 RMK A01 T03360163  RH  036%=      5-min Rain = 0
KTAS 091843Z 17010G17KT 34/17 A3009 RMK A01 T03350165  RH  036%=      5-min Rain = 0
KTAS 091844Z 16013KT 34/16 A3009 RMK A01 T03370160  RH  035%=      5-min Rain = 0
KTAS 091845Z 15010KT 34/16 A3009 RMK A01 T03360156  RH  034%=      5-min Rain = 0
KTAS 091846Z 14012G19KT 34/16 A3008 RMK A01 T03380155  RH  034%=      5-min Rain = 0
KTAS 091847Z 16016KT 34/16 A3008 RMK A01 T03420156  RH  033%=      5-min Rain = 0
KTAS 091848Z 16015G20KT 34/16 A3009 RMK A01 T03410159  RH  034%=      5-min Rain = 0
KTAS 091849Z 16013KT 34/16 A3009 RMK A01 T03400162  RH  035%=      5-min Rain = 0
KTAS 091850Z 16010KT 34/16 A3008 RMK A01 T03390163  RH  035%=      5-min Rain = 0
KTAS 091851Z 17012KT 34/16 A3008 RMK A01 T03420162  RH  034%=      5-min Rain = 0
KTAS 091852Z 17016KT 34/16 A3008 RMK A01 T03420161  RH  034%=      5-min Rain = 0
KTAS 091853Z 17014KT 34/16 A3008 RMK A01 T03400158  RH  034%=      5-min Rain = 0
KTAS 091854Z 16014KT 34/15 A3008 RMK A01 T03390154  RH  033%=      5-min Rain = 0
KTAS 091855Z 16015KT 34/15 A3008 RMK A01 T03390148  RH  032%=      5-min Rain = 0
KTAS 091856Z 16011KT 34/14 A3008 RMK A01 T03370144  RH  031%=      5-min Rain = 0
KTAS 091857Z 16011KT 34/15 A3008 RMK A01 T03370149  RH  032%=      5-min Rain = 0
KTAS 091858Z 16011KT 34/15 A3008 RMK A01 T03390152  RH  033%=      5-min Rain = 0
KTAS 091859Z 16016KT 34/15 A3008 RMK A01 T03410154  RH  033%=      5-min Rain = 0
KTAS 091900Z 17013KT 34/15 A3008 RMK A01 T03410152  RH  032%=      5-min Rain = 0
KTAS 091901Z 18011KT 34/15 A3008 RMK A01 T03400154  RH  033%=      5-min Rain = 0
KTAS 091902Z 18014KT 34/16 A3008 RMK A01 T03390157  RH  034%=      5-min Rain = 0
KTAS 091903Z 17016KT 34/16 A3008 RMK A01 T03390160  RH  034%=      5-min Rain = 0
KTAS 091904Z 16014G19KT 34/16 A3008 RMK A01 T03390159  RH  034%=      5-min Rain = 0
KTAS 091905Z 17012KT 34/16 A3008 RMK A01 T03400157  RH  033%=      5-min Rain = 0
KTAS 091906Z 16013KT 34/16 A3008 RMK A01 T03430158  RH  033%=      5-min Rain = 0
KTAS 091907Z 17013KT 34/16 A3008 RMK A01 T03430161  RH  034%=      5-min Rain = 0
KTAS 091908Z 18014KT 34/16 A3008 RMK A01 T03430155  RH  032%=      5-min Rain = 0
KTAS 091909Z 16014KT 34/16 A3008 RMK A01 T03420157  RH  033%=      5-min Rain = 0
KTAS 091910Z 17011KT 34/16 A3008 RMK A01 T03420161  RH  034%=      5-min Rain = 0
KTAS 091911Z 20010KT 34/16 A3008 RMK A01 T03430160  RH  034%=      5-min Rain = 0
KTAS 091912Z 18010G15KT 34/16 A3008 RMK A01 T03410161  RH  034%=      5-min Rain = 0
KTAS 091913Z 16011G17KT 34/16 A3008 RMK A01 T03400162  RH  034%=      5-min Rain = 0
KTAS 091914Z 16013KT 34/16 A3008 RMK A01 T03420158  RH  033%=      5-min Rain = 0
KTAS 091915Z 15013KT 34/16 A3008 RMK A01 T03410156  RH  033%=      5-min Rain = 0
KTAS 091916Z 17010G15KT 34/16 A3008 RMK A01 T03420158  RH  033%=      5-min Rain = 0
KTAS 091917Z 16010KT 35/16 A3008 RMK A01 T03450159  RH  033%=      5-min Rain = 0
KTAS 091918Z 15010KT 35/16 A3008 RMK A01 T03460156  RH  032%=      5-min Rain = 0
KTAS 091919Z 14010KT 35/16 A3008 RMK A01 T03450159  RH  033%=      5-min Rain = 0
KTAS 091920Z 14010KT 35/16 A3007 RMK A01 T03470160  RH  033%=      5-min Rain = 0
KTAS 091921Z 16012KT 35/16 A3007 RMK A01 T03500156  RH  032%=      5-min Rain = 0
KTAS 091922Z 16012KT 35/15 A3007 RMK A01 T03470148  RH  030%=      5-min Rain = 0
KTAS 091923Z 17012KT 35/15 A3007 RMK A01 T03460147  RH  030%=      5-min Rain = 0
KTAS 091924Z 17013KT 35/15 A3007 RMK A01 T03460151  RH  031%=      5-min Rain = 0
KTAS 091925Z 16011G16KT 34/15 A3007 RMK A01 T03440153  RH  032%=      5-min Rain = 0
KTAS 091926Z 15013KT 34/16 A3007 RMK A01 T03440155  RH  032%=      5-min Rain = 0
KTAS 091927Z 16016KT 34/16 A3007 RMK A01 T03440158  RH  033%=      5-min Rain = 0
KTAS 091928Z 16013KT 35/16 A3007 RMK A01 T03450159  RH  033%=      5-min Rain = 0
KTAS 091929Z 17008KT 34/16 A3007 RMK A01 T03440159  RH  033%=      5-min Rain = 0
KTAS 091930Z 17010KT 35/16 A3007 RMK A01 T03450161  RH  033%=      5-min Rain = 0
KTAS 091931Z 16010KT 35/16 A3007 RMK A01 T03450160  RH  033%=      5-min Rain = 0
KTAS 091932Z 17011KT 35/16 A3007 RMK A01 T03460160  RH  033%=      5-min Rain = 0
KTAS 091933Z 14013KT 35/16 A3007 RMK A01 T03490156  RH  032%=      5-min Rain = 0
KTAS 091934Z 15016KT 35/14 A3007 RMK A01 T03500143  RH  029%=      5-min Rain = 0
KTAS 091935Z 16017KT 35/14 A3007 RMK A01 T03480139  RH  028%=      5-min Rain = 0
KTAS 091936Z 18015KT 35/13 A3007 RMK A01 T03460134  RH  028%=      5-min Rain = 0
KTAS 091937Z 17014KT 35/14 A3007 RMK A01 T03460136  RH  028%=      5-min Rain = 0
KTAS 091938Z 16015KT 35/14 A3007 RMK A01 T03470144  RH  030%=      5-min Rain = 0
KTAS 091939Z 16012KT 35/15 A3007 RMK A01 T03470148  RH  030%=      5-min Rain = 0
KTAS 091940Z 16012KT 35/15 A3007 RMK A01 T03480150  RH  031%=      5-min Rain = 0
KTAS 091941Z 16013KT 35/15 A3007 RMK A01 T03470151  RH  031%=      5-min Rain = 0
KTAS 091942Z 16010KT 35/15 A3007 RMK A01 T03480153  RH  031%=      5-min Rain = 0
KTAS 091943Z 15008KT 35/15 A3007 RMK A01 T03500154  RH  031%=      5-min Rain = 0
KTAS 091944Z 16009KT 35/16 A3007 RMK A01 T03490156  RH  032%=      5-min Rain = 0
KTAS 091945Z 17015KT 35/15 A3007 RMK A01 T03520154  RH  031%=      5-min Rain = 0
KTAS 091946Z 16016KT 35/14 A3007 RMK A01 T03510142  RH  029%=      5-min Rain = 0
KTAS 091947Z 16011KT 35/14 A3007 RMK A01 T03480139  RH  028%=      5-min Rain = 0
KTAS 091948Z 16012KT 35/14 A3006 RMK A01 T03470140  RH  029%=      5-min Rain = 0
KTAS 091949Z 16013KT 35/14 A3006 RMK A01 T03470141  RH  029%=      5-min Rain = 0
KTAS 091950Z 16012KT 35/14 A3006 RMK A01 T03480135  RH  028%=      5-min Rain = 0
KTAS 091951Z 16013KT 35/14 A3006 RMK A01 T03500136  RH  028%=      5-min Rain = 0
KTAS 091952Z 15006G12KT 35/13 A3006 RMK A01 T03510134  RH  027%=      5-min Rain = 0
KTAS 091953Z 15010KT 35/14 A3006 RMK A01 T03510137  RH  028%=      5-min Rain = 0
KTAS 091954Z 16012KT 35/14 A3006 RMK A01 T03520140  RH  028%=      5-min Rain = 0
KTAS 091955Z 16011KT 35/14 A3006 RMK A01 T03520142  RH  028%=      5-min Rain = 0
KTAS 091956Z 16011KT 35/14 A3006 RMK A01 T03530142  RH  028%=      5-min Rain = 0
KTAS 091957Z 16012KT 36/15 A3006 RMK A01 T03550146  RH  029%=      5-min Rain = 0
KTAS 091958Z 17008KT 35/14 A3006 RMK A01 T03530142  RH  028%=      5-min Rain = 0
KTAS 091959Z 16009KT 35/15 A3006 RMK A01 T03510147  RH  029%=      5-min Rain = 0
KTAS 092000Z 16009KT 35/15 A3006 RMK A01 T03540148  RH  029%=      5-min Rain = 0
KTAS 092001Z 18012KT 36/15 A3006 RMK A01 T03570152  RH  030%=      5-min Rain = 0
KTAS 092002Z 16013KT 36/15 A3006 RMK A01 T03580153  RH  030%=      5-min Rain = 0
KTAS 092003Z 17012KT 36/15 A3006 RMK A01 T03620151  RH  029%=      5-min Rain = 0
KTAS 092004Z 18012KT 36/15 A3006 RMK A01 T03580145  RH  028%=      5-min Rain = 0
KTAS 092005Z 18015KT 35/15 A3005 RMK A01 T03530148  RH  029%=      5-min Rain = 0
KTAS 092006Z 18013KT 35/15 A3006 RMK A01 T03520148  RH  030%=      5-min Rain = 0
KTAS 092007Z 18013KT 35/15 A3006 RMK A01 T03510148  RH  030%=      5-min Rain = 0
KTAS 092008Z 18013KT 35/14 A3005 RMK A01 T03530143  RH  028%=      5-min Rain = 0
KTAS 092009Z 18014KT 36/14 A3005 RMK A01 T03560141  RH  028%=      5-min Rain = 0
KTAS 092010Z 17016KT 36/14 A3005 RMK A01 T03560144  RH  028%=      5-min Rain = 0
KTAS 092011Z 17014KT 36/15 A3006 RMK A01 T03560145  RH  028%=      5-min Rain = 0
KTAS 092012Z 16010KT 36/14 A3005 RMK A01 T03570143  RH  028%=      5-min Rain = 0
KTAS 092013Z 16012KT 36/14 A3005 RMK A01 T03570143  RH  028%=      5-min Rain = 0
KTAS 092014Z 18008KT 36/14 A3005 RMK A01 T03550142  RH  028%=      5-min Rain = 0
KTAS 092015Z 18015KT 36/14 A3005 RMK A01 T03570143  RH  028%=      5-min Rain = 0
KTAS 092016Z 17014KT 36/15 A3005 RMK A01 T03570147  RH  029%=      5-min Rain = 0
KTAS 092017Z 18014KT 36/14 A3005 RMK A01 T03580135  RH  026%=      5-min Rain = 0
KTAS 092018Z 18014KT 36/13 A3005 RMK A01 T03570128  RH  025%=      5-min Rain = 0
KTAS 092019Z 17011KT 36/13 A3005 RMK A01 T03550128  RH  025%=      5-min Rain = 0
KTAS 092020Z 16010KT 35/13 A3005 RMK A01 T03540133  RH  027%=      5-min Rain = 0
KTAS 092021Z 18012KT 36/14 A3005 RMK A01 T03580138  RH  027%=      5-min Rain = 0
KTAS 092022Z 16013KT 36/13 A3005 RMK A01 T03580127  RH  025%=      5-min Rain = 0
KTAS 092023Z 19012KT 36/12 A3005 RMK A01 T03590122  RH  024%=      5-min Rain = 0
KTAS 092024Z 18014G19KT 36/13 A3005 RMK A01 T03610126  RH  024%=      5-min Rain = 0
KTAS 092025Z 18015KT 36/12 A3005 RMK A01 T03630123  RH  024%=      5-min Rain = 0
KTAS 092026Z 17010KT 36/12 A3005 RMK A01 T03590122  RH  024%=      5-min Rain = 0
KTAS 092027Z 18012KT 36/13 A3005 RMK A01 T03600126  RH  025%=      5-min Rain = 0
KTAS 092028Z 18009G14KT 36/12 A3005 RMK A01 T03580124  RH  024%=      5-min Rain = 0
KTAS 092029Z 15010KT 36/13 A3005 RMK A01 T03560129  RH  026%=      5-min Rain = 0
KTAS 092030Z 16010KT 36/13 A3005 RMK A01 T03580134  RH  026%=      5-min Rain = 0
KTAS 092031Z 17009KT 36/13 A3005 RMK A01 T03590134  RH  026%=      5-min Rain = 0
KTAS 092032Z 17011KT 36/14 A3004 RMK A01 T03580136  RH  026%=      5-min Rain = 0
KTAS 092033Z 17014G20KT 36/14 A3004 RMK A01 T03570141  RH  028%=      5-min Rain = 0
KTAS 092034Z 17016KT 36/14 A3004 RMK A01 T03580140  RH  027%=      5-min Rain = 0
KTAS 092035Z 19014KT 36/14 A3004 RMK A01 T03560139  RH  027%=      5-min Rain = 0
KTAS 092036Z 19009KT 36/14 A3004 RMK A01 T03550136  RH  027%=      5-min Rain = 0
KTAS 092037Z 16010KT 36/14 A3004 RMK A01 T03560138  RH  027%=      5-min Rain = 0
KTAS 092038Z 16008KT 36/14 A3004 RMK A01 T03580139  RH  027%=      5-min Rain = 0
KTAS 092039Z 15012G18KT 36/14 A3004 RMK A01 T03610140  RH  027%=      5-min Rain = 0
KTAS 092040Z 17012G17KT 36/14 A3004 RMK A01 T03590141  RH  027%=      5-min Rain = 0
KTAS 092041Z 18013KT 36/14 A3004 RMK A01 T03620141  RH  027%=      5-min Rain = 0
KTAS 092042Z 16011KT 36/14 A3004 RMK A01 T03600141  RH  027%=      5-min Rain = 0
KTAS 092043Z 16010KT 36/14 A3004 RMK A01 T03600142  RH  027%=      5-min Rain = 0
KTAS 092044Z 17009KT 36/15 A3004 RMK A01 T03590145  RH  028%=      5-min Rain = 0
KTAS 092045Z 18012KT 36/15 A3004 RMK A01 T03570145  RH  028%=      5-min Rain = 0
KTAS 092046Z 18012G18KT 36/15 A3004 RMK A01 T03570145  RH  028%=      5-min Rain = 0
KTAS 092047Z 16014G19KT 36/15 A3004 RMK A01 T03620147  RH  028%=      5-min Rain = 0
KTAS 092048Z 16014KT 36/14 A3004 RMK A01 T03620142  RH  027%=      5-min Rain = 0
KTAS 092049Z 17014G19KT 36/14 A3004 RMK A01 T03590137  RH  027%=      5-min Rain = 0
KTAS 092050Z 16013KT 36/13 A3004 RMK A01 T03570129  RH  025%=      5-min Rain = 0
KTAS 092051Z 17013KT 36/13 A3004 RMK A01 T03580131  RH  026%=      5-min Rain = 0
KTAS 092052Z 16014KT 36/14 A3004 RMK A01 T03600137  RH  026%=      5-min Rain = 0
KTAS 092053Z 16014KT 36/14 A3004 RMK A01 T03630138  RH  026%=      5-min Rain = 0
KTAS 092054Z 16014KT 36/13 A3004 RMK A01 T03620132  RH  025%=      5-min Rain = 0
KTAS 092055Z 15011KT 36/13 A3004 RMK A01 T03610134  RH  026%=      5-min Rain = 0
KTAS 092056Z 14012KT 36/13 A3004 RMK A01 T03620129  RH  025%=      5-min Rain = 0
KTAS 092057Z 15010KT 36/13 A3004 RMK A01 T03630128  RH  024%=      5-min Rain = 0
KTAS 092058Z 16010KT 37/13 A3004 RMK A01 T03650128  RH  024%=      5-min Rain = 0
KTAS 092059Z 16012KT 37/13 A3004 RMK A01 T03660126  RH  024%=      5-min Rain = 0
KTAS 092100Z 16011KT 36/12 A3003 RMK A01 T03630123  RH  024%=      5-min Rain = 0
KTAS 092101Z 17011KT 36/12 A3003 RMK A01 T03610117  RH  023%=      5-min Rain = 0
KTAS 092102Z 18014KT 36/11 A3003 RMK A01 T03620114  RH  022%=      5-min Rain = 0
KTAS 092103Z 17014KT 36/12 A3003 RMK A01 T03620120  RH  023%=      5-min Rain = 0
KTAS 092104Z 16017KT 36/13 A3003 RMK A01 T03620129  RH  025%=      5-min Rain = 0
KTAS 092105Z 17014KT 36/13 A3003 RMK A01 T03600131  RH  025%=      5-min Rain = 0
KTAS 092106Z 18012KT 36/13 A3003 RMK A01 T03620131  RH  025%=      5-min Rain = 0
KTAS 092107Z 17013KT 37/13 A3003 RMK A01 T03660127  RH  024%=      5-min Rain = 0
KTAS 092108Z 16011KT 37/12 A3003 RMK A01 T03650124  RH  024%=      5-min Rain = 0
KTAS 092109Z 17012KT 37/13 A3003 RMK A01 T03660125  RH  024%=      5-min Rain = 0
KTAS 092110Z 17010KT 37/12 A3003 RMK A01 T03650122  RH  023%=      5-min Rain = 0
KTAS 092111Z 16008KT 37/13 A3003 RMK A01 T03650125  RH  024%=      5-min Rain = 0
KTAS 092112Z 17010KT 37/13 A3003 RMK A01 T03670126  RH  023%=      5-min Rain = 0
KTAS 092113Z 18010KT 37/12 A3003 RMK A01 T03700117  RH  022%=      5-min Rain = 0
KTAS 092114Z 16012KT 37/13 A3003 RMK A01 T03690127  RH  023%=      5-min Rain = 0
KTAS 092115Z 17013KT 37/13 A3003 RMK A01 T03690131  RH  024%=      5-min Rain = 0
KTAS 092116Z 18014KT 37/13 A3003 RMK A01 T03690134  RH  025%=      5-min Rain = 0
KTAS 092117Z 18015KT 37/13 A3003 RMK A01 T03690127  RH  024%=      5-min Rain = 0
KTAS 092118Z 19013KT 37/12 A3003 RMK A01 T03660123  RH  023%=      5-min Rain = 0
KTAS 092119Z 20012KT 36/12 A3003 RMK A01 T03640122  RH  023%=      5-min Rain = 0
KTAS 092120Z 18011KT 36/12 A3003 RMK A01 T03640118  RH  023%=      5-min Rain = 0
KTAS 092121Z 18010KT 37/12 A3003 RMK A01 T03650123  RH  023%=      5-min Rain = 0
KTAS 092122Z 18009KT 36/13 A3003 RMK A01 T03640125  RH  024%=      5-min Rain = 0
KTAS 092123Z 17009KT 37/13 A3002 RMK A01 T03650131  RH  025%=      5-min Rain = 0
KTAS 092124Z 14014KT 37/13 A3002 RMK A01 T03680134  RH  025%=      5-min Rain = 0
KTAS 092125Z 17012KT 37/13 A3002 RMK A01 T03660134  RH  025%=      5-min Rain = 0
KTAS 092126Z 19016G23KT 37/13 A3002 RMK A01 T03650126  RH  024%=      5-min Rain = 0
KTAS 092127Z 17013G18KT 37/13 A3002 RMK A01 T03660126  RH  024%=      5-min Rain = 0
KTAS 092128Z 18017KT 37/12 A3002 RMK A01 T03670122  RH  023%=      5-min Rain = 0
KTAS 092129Z 19014G19KT 36/12 A3002 RMK A01 T03630118  RH  023%=      5-min Rain = 0
KTAS 092130Z 19013G18KT 36/12 A3002 RMK A01 T03630122  RH  023%=      5-min Rain = 0
KTAS 092131Z 18016KT 36/12 A3002 RMK A01 T03640120  RH  023%=      5-min Rain = 0
KTAS 092132Z 19013KT 36/12 A3002 RMK A01 T03640120  RH  023%=      5-min Rain = 0
KTAS 092133Z 16011KT 37/13 A3002 RMK A01 T03660127  RH  024%=      5-min Rain = 0
KTAS 092134Z 17009KT 37/13 A3002 RMK A01 T03670132  RH  025%=      5-min Rain = 0
KTAS 092135Z 15009KT 37/12 A3002 RMK A01 T03680123  RH  023%=      5-min Rain = 0
KTAS 092136Z 16010G15KT 37/12 A3002 RMK A01 T03670123  RH  023%=      5-min Rain = 0
KTAS 092137Z 16013KT 37/13 A3002 RMK A01 T03660127  RH  024%=      5-min Rain = 0
KTAS 092138Z 19011KT 37/12 A3002 RMK A01 T03680123  RH  023%=      5-min Rain = 0
KTAS 092139Z 18013KT 37/12 A3002 RMK A01 T03730124  RH  023%=      5-min Rain = 0
KTAS 092140Z 17016KT 37/13 A3002 RMK A01 T03720128  RH  023%=      5-min Rain = 0
KTAS 092141Z 16014KT 37/13 A3002 RMK A01 T03690130  RH  024%=      5-min Rain = 0
KTAS 092142Z 16013KT 37/13 A3002 RMK A01 T03660129  RH  024%=      5-min Rain = 0
KTAS 092143Z 17010KT 36/13 A3002 RMK A01 T03640130  RH  025%=      5-min Rain = 0
KTAS 092144Z 16010KT 37/13 A3002 RMK A01 T03650130  RH  024%=      5-min Rain = 0
KTAS 092145Z 17011KT 37/13 A3002 RMK A01 T03650132  RH  025%=      5-min Rain = 0
KTAS 092146Z 16011KT 37/13 A3002 RMK A01 T03650125  RH  024%=      5-min Rain = 0
KTAS 092147Z 17010KT 36/12 A3002 RMK A01 T03640121  RH  023%=      5-min Rain = 0
KTAS 092148Z 17014KT 37/12 A3002 RMK A01 T03650123  RH  023%=      5-min Rain = 0
KTAS 092149Z 17011KT 37/12 A3002 RMK A01 T03650123  RH  023%=      5-min Rain = 0
KTAS 092150Z 17012KT 37/12 A3002 RMK A01 T03650124  RH  024%=      5-min Rain = 0
KTAS 092151Z 18010KT 36/13 A3002 RMK A01 T03640125  RH  024%=      5-min Rain = 0
KTAS 092152Z 17011G16KT 37/13 A3002 RMK A01 T03650125  RH  024%=      5-min Rain = 0
KTAS 092153Z 16012KT 37/13 A3002 RMK A01 T03650129  RH  024%=      5-min Rain = 0
KTAS 092154Z 16012KT 36/14 A3002 RMK A01 T03640135  RH  025%=      5-min Rain = 0
KTAS 092155Z 16010KT 36/13 A3002 RMK A01 T03620131  RH  025%=      5-min Rain = 0
KTAS 092156Z 16009KT 36/13 A3002 RMK A01 T03610131  RH  025%=      5-min Rain = 0
KTAS 092157Z 15007KT 36/13 A3002 RMK A01 T03600134  RH  026%=      5-min Rain = 0
KTAS 092158Z 17009G14KT 36/14 A3001 RMK A01 T03620135  RH  026%=      5-min Rain = 0
KTAS 092159Z 16011G19KT 37/14 A3001 RMK A01 T03650135  RH  025%=      5-min Rain = 0
KTAS 092200Z 17017KT 37/13 A3001 RMK A01 T03670133  RH  025%=      5-min Rain = 0
KTAS 092201Z 16013KT 37/13 A3001 RMK A01 T03660131  RH  025%=      5-min Rain = 0
KTAS 092202Z 17015KT 36/13 A3001 RMK A01 T03640131  RH  025%=      5-min Rain = 0
KTAS 092203Z 17013KT 36/13 A3001 RMK A01 T03630128  RH  024%=      5-min Rain = 0
KTAS 092204Z 16012KT 36/13 A3001 RMK A01 T03630131  RH  025%=      5-min Rain = 0
KTAS 092205Z 15013KT 37/13 A3001 RMK A01 T03650130  RH  024%=      5-min Rain = 0
KTAS 092206Z 15013KT 37/13 A3001 RMK A01 T03650126  RH  024%=      5-min Rain = 0
KTAS 092207Z 16012KT 36/13 A3001 RMK A01 T03640125  RH  024%=      5-min Rain = 0
KTAS 092208Z 17015KT 36/12 A3001 RMK A01 T03630123  RH  024%=      5-min Rain = 0
KTAS 092209Z 15015KT 36/13 A3001 RMK A01 T03630125  RH  024%=      5-min Rain = 0
KTAS 092210Z 16013KT 36/12 A3001 RMK A01 T03630124  RH  024%=      5-min Rain = 0
KTAS 092211Z 15013KT 36/13 A3001 RMK A01 T03640125  RH  024%=      5-min Rain = 0
KTAS 092212Z 18013KT 37/12 A3001 RMK A01 T03670123  RH  023%=      5-min Rain = 0
KTAS 092213Z 18009KT 37/12 A3001 RMK A01 T03680119  RH  022%=      5-min Rain = 0
KTAS 092214Z 18014KT 37/12 A3001 RMK A01 T03710120  RH  022%=      5-min Rain = 0
KTAS 092215Z 18015KT 37/12 A3001 RMK A01 T03690117  RH  022%=      5-min Rain = 0
KTAS 092216Z 18012KT 37/11 A3001 RMK A01 T03680111  RH  021%=      5-min Rain = 0
KTAS 092217Z 18012KT 37/11 A3001 RMK A01 T03680112  RH  021%=      5-min Rain = 0
KTAS 092218Z 17013KT 37/11 A3001 RMK A01 T03680114  RH  022%=      5-min Rain = 0
KTAS 092219Z 16011KT 37/12 A3001 RMK A01 T03670118  RH  022%=      5-min Rain = 0
KTAS 092220Z 16010KT 37/12 A3001 RMK A01 T03670116  RH  022%=      5-min Rain = 0
KTAS 092221Z 17010KT 37/11 A3001 RMK A01 T03660114  RH  022%=      5-min Rain = 0
KTAS 092222Z 17011KT 37/11 A3001 RMK A01 T03660113  RH  022%=      5-min Rain = 0
KTAS 092223Z 17012KT 37/11 A3001 RMK A01 T03660105  RH  021%=      5-min Rain = 0
KTAS 092224Z 16012KT 37/10 A3001 RMK A01 T03660103  RH  020%=      5-min Rain = 0
KTAS 092225Z 16009KT 37/11 A3001 RMK A01 T03650109  RH  021%=      5-min Rain = 0
KTAS 092226Z 17010G15KT 36/11 A3001 RMK A01 T03640110  RH  022%=      5-min Rain = 0
KTAS 092227Z 18012KT 37/12 A3001 RMK A01 T03650115  RH  022%=      5-min Rain = 0
KTAS 092228Z 18012KT 37/12 A3001 RMK A01 T03670121  RH  023%=      5-min Rain = 0
KTAS 092229Z 18011KT 37/12 A3001 RMK A01 T03680124  RH  023%=      5-min Rain = 0
KTAS 092230Z 17011G16KT 37/13 A30 RMK A01 T03680125  RH  023%=      5-min Rain = 0
KTAS 092231Z 16011KT 37/13 A30 RMK A01 T03680130  RH  024%=      5-min Rain = 0
KTAS 092232Z 17011KT 37/13 A30 RMK A01 T03680131  RH  024%=      5-min Rain = 0
KTAS 092233Z 18015KT 37/12 A30 RMK A01 T03670124  RH  023%=      5-min Rain = 0
KTAS 092234Z 16015G21KT 37/13 A30 RMK A01 T03660127  RH  024%=      5-min Rain = 0
KTAS 092235Z 16013KT 37/13 A30 RMK A01 T03650127  RH  024%=      5-min Rain = 0
KTAS 092236Z 17012G17KT 37/13 A30 RMK A01 T03650126  RH  024%=      5-min Rain = 0
KTAS 092237Z 17015KT 37/12 A30 RMK A01 T03660121  RH  023%=      5-min Rain = 0
KTAS 092238Z 17015KT 37/12 A30 RMK A01 T03650117  RH  022%=      5-min Rain = 0
KTAS 092239Z 17014KT 36/11 A30 RMK A01 T03640114  RH  022%=      5-min Rain = 0
KTAS 092240Z 16012KT 36/12 A30 RMK A01 T03630115  RH  022%=      5-min Rain = 0
KTAS 092241Z 19015KT 36/11 A30 RMK A01 T03640114  RH  022%=      5-min Rain = 0
KTAS 092242Z 20011G16KT 37/10 A30 RMK A01 T03670101  RH  020%=      5-min Rain = 0
KTAS 092243Z 20015KT 37/11 A30 RMK A01 T03680105  RH  020%=      5-min Rain = 0
KTAS 092244Z 19013KT 37/11 A30 RMK A01 T03670107  RH  021%=      5-min Rain = 0
KTAS 092245Z 19017KT 37/11 A30 RMK A01 T03670105  RH  021%=      5-min Rain = 0
KTAS 092246Z 18013KT 36/11 A30 RMK A01 T03640107  RH  021%=      5-min Rain = 0
KTAS 092247Z 18013KT 36/11 A30 RMK A01 T03640108  RH  021%=      5-min Rain = 0
KTAS 092248Z 18012KT 36/11 A30 RMK A01 T03640109  RH  021%=      5-min Rain = 0
KTAS 092249Z 20012KT 36/11 A30 RMK A01 T03640106  RH  021%=      5-min Rain = 0
KTAS 092250Z 17013KT 37/11 A30 RMK A01 T03650109  RH  021%=      5-min Rain = 0
KTAS 092251Z 17010KT 37/12 A30 RMK A01 T03680116  RH  022%=      5-min Rain = 0
KTAS 092252Z 17012KT 37/12 A30 RMK A01 T03700121  RH  022%=      5-min Rain = 0
KTAS 092253Z 18012KT 37/12 A30 RMK A01 T03700120  RH  022%=      5-min Rain = 0
KTAS 092254Z 17012KT 37/12 A30 RMK A01 T03680118  RH  022%=      5-min Rain = 0
KTAS 092255Z 18008KT 37/12 A30 RMK A01 T03680120  RH  023%=      5-min Rain = 0
KTAS 092256Z 17013KT 37/12 A30 RMK A01 T03690115  RH  022%=      5-min Rain = 0
KTAS 092257Z 18012KT 37/12 A30 RMK A01 T03680117  RH  022%=      5-min Rain = 0
KTAS 092258Z 18013KT 37/11 A30 RMK A01 T03670114  RH  022%=      5-min Rain = 0
KTAS 092259Z 18011KT 37/11 A30 RMK A01 T03660110  RH  021%=      5-min Rain = 0
KTAS 092300Z 17009KT 37/11 A30 RMK A01 T03670112  RH  021%=      5-min Rain = 0
KTAS 092301Z 16013KT 37/12 A30 RMK A01 T03660115  RH  022%=      5-min Rain = 0
KTAS 092302Z 17015KT 37/12 A30 RMK A01 T03650117  RH  022%=      5-min Rain = 0
KTAS 092303Z 17015KT 36/12 A30 RMK A01 T03640119  RH  023%=      5-min Rain = 0
KTAS 092304Z 16015KT 36/12 A30 RMK A01 T03630117  RH  023%=      5-min Rain = 0
KTAS 092305Z 17013KT 36/12 A30 RMK A01 T03620115  RH  023%=      5-min Rain = 0
KTAS 092306Z 17010KT 36/12 A30 RMK A01 T03640116  RH  022%=      5-min Rain = 0
KTAS 092307Z 17012KT 36/12 A30 RMK A01 T03640117  RH  023%=      5-min Rain = 0
KTAS 092308Z 17012KT 36/11 A30 RMK A01 T03640114  RH  022%=      5-min Rain = 0
KTAS 092309Z 16011KT 36/11 A30 RMK A01 T03620114  RH  022%=      5-min Rain = 0
KTAS 092310Z 18012KT 36/12 A30 RMK A01 T03620116  RH  023%=      5-min Rain = 0
KTAS 092311Z 19011KT 36/11 A30 RMK A01 T03630112  RH  022%=      5-min Rain = 0
KTAS 092312Z 18011KT 37/11 A30 RMK A01 T03650108  RH  021%=      5-min Rain = 0
KTAS 092313Z 18012KT 37/11 A30 RMK A01 T03650106  RH  021%=      5-min Rain = 0
KTAS 092314Z 18010KT 36/12 A30 RMK A01 T03640116  RH  023%=      5-min Rain = 0
KTAS 092315Z 17010G15KT 37/12 A30 RMK A01 T03650122  RH  023%=      5-min Rain = 0
KTAS 092316Z 17015KT 37/12 A30 RMK A01 T03650123  RH  024%=      5-min Rain = 0
KTAS 092317Z 17013KT 36/13 A30 RMK A01 T03620126  RH  024%=      5-min Rain = 0
KTAS 092318Z 17013KT 36/13 A30 RMK A01 T03620128  RH  025%=      5-min Rain = 0
KTAS 092319Z 17013KT 36/12 A30 RMK A01 T03610124  RH  024%=      5-min Rain = 0
KTAS 092320Z 16012KT 36/12 A30 RMK A01 T03600124  RH  024%=      5-min Rain = 0
KTAS 092321Z 16013KT 36/13 A30 RMK A01 T03600125  RH  024%=      5-min Rain = 0
KTAS 092322Z 16014KT 36/13 A30 RMK A01 T03590125  RH  024%=      5-min Rain = 0
KTAS 092323Z 16013KT 36/12 A30 RMK A01 T03580124  RH  024%=      5-min Rain = 0
KTAS 092324Z 16012KT 36/13 A30 RMK A01 T03590126  RH  025%=      5-min Rain = 0
KTAS 092325Z 16014KT 36/13 A30 RMK A01 T03600128  RH  025%=      5-min Rain = 0
KTAS 092326Z 16014KT 36/13 A2999 RMK A01 T03600127  RH  025%=      5-min Rain = 0
KTAS 092327Z 16013KT 36/12 A2999 RMK A01 T03590124  RH  024%=      5-min Rain = 0
KTAS 092328Z 17014KT 36/13 A2999 RMK A01 T03590126  RH  025%=      5-min Rain = 0
KTAS 092329Z 17014KT 36/13 A2999 RMK A01 T03580129  RH  025%=      5-min Rain = 0
KTAS 092330Z 16014KT 36/13 A2999 RMK A01 T03590131  RH  026%=      5-min Rain = 0
KTAS 092331Z 17012KT 36/13 A2999 RMK A01 T03590131  RH  026%=      5-min Rain = 0
KTAS 092332Z 18014KT 36/13 A2999 RMK A01 T03600127  RH  025%=      5-min Rain = 0
KTAS 092333Z 17013KT 36/13 A2999 RMK A01 T03580125  RH  025%=      5-min Rain = 0
KTAS 092334Z 17011KT 36/13 A2999 RMK A01 T03580127  RH  025%=      5-min Rain = 0
KTAS 092335Z 17011KT 36/13 A2999 RMK A01 T03590129  RH  025%=      5-min Rain = 0
KTAS 092336Z 17010KT 36/13 A2999 RMK A01 T03600129  RH  025%=      5-min Rain = 0
KTAS 092337Z 17012KT 36/13 A2999 RMK A01 T03610131  RH  025%=      5-min Rain = 0
KTAS 092338Z 17015KT 36/13 A2999 RMK A01 T03590131  RH  025%=      5-min Rain = 0
KTAS 092339Z 17015KT 36/13 A2999 RMK A01 T03590126  RH  025%=      5-min Rain = 0
KTAS 092340Z 18013KT 36/13 A2999 RMK A01 T03580125  RH  025%=      5-min Rain = 0
KTAS 092341Z 18016KT 36/13 A2999 RMK A01 T03580126  RH  025%=      5-min Rain = 0
KTAS 092342Z 17013KT 36/13 A2999 RMK A01 T03570126  RH  025%=      5-min Rain = 0
KTAS 092343Z 17013KT 36/13 A2999 RMK A01 T03570127  RH  025%=      5-min Rain = 0
KTAS 092344Z 17014G19KT 36/13 A2999 RMK A01 T03570127  RH  025%=      5-min Rain = 0
KTAS 092345Z 19013KT 36/13 A2999 RMK A01 T03570127  RH  025%=      5-min Rain = 0
KTAS 092346Z 19012KT 36/13 A2999 RMK A01 T03570128  RH  025%=      5-min Rain = 0
KTAS 092347Z 17010KT 36/13 A2999 RMK A01 T03580129  RH  025%=      5-min Rain = 0
KTAS 092348Z 17013KT 36/13 A2999 RMK A01 T03590129  RH  025%=      5-min Rain = 0
KTAS 092349Z 16011KT 36/13 A2999 RMK A01 T03570131  RH  026%=      5-min Rain = 0
KTAS 092350Z 16013KT 36/13 A2999 RMK A01 T03560130  RH  026%=      5-min Rain = 0
KTAS 092351Z 16012KT 36/13 A2999 RMK A01 T03550130  RH  026%=      5-min Rain = 0
KTAS 092352Z 16012KT 36/13 A2999 RMK A01 T03550131  RH  026%=      5-min Rain = 0
KTAS 092353Z 16013G18KT 36/13 A2999 RMK A01 T03550133  RH  026%=      5-min Rain = 0
KTAS 092354Z 16012KT 36/13 A2999 RMK A01 T03550133  RH  027%=      5-min Rain = 0
KTAS 092355Z 17012KT 36/13 A2999 RMK A01 T03550133  RH  026%=      5-min Rain = 0
KTAS 092356Z 16011KT 36/14 A2999 RMK A01 T03550136  RH  027%=      5-min Rain = 0
KTAS 092357Z 17013KT 36/14 A2999 RMK A01 T03550137  RH  027%=      5-min Rain = 0
KTAS 092358Z 17015G20KT 35/14 A2999 RMK A01 T03540136  RH  027%=      5-min Rain = 0
KTAS 092359Z 16016KT 35/13 A2999 RMK A01 T03530132  RH  027%=      5-min Rain = 0
KTAS 100000Z 17016KT 35/13 A2999 RMK A01 T03520130  RH  026%=      5-min Rain = 0
KTAS 100001Z 17014KT 35/13 A2999 RMK A01 T03520130  RH  026%=      5-min Rain = 0
KTAS 100002Z 17014KT 35/13 A2999 RMK A01 T03530131  RH  026%=      5-min Rain = 0
KTAS 100003Z 17017KT 35/13 A2999 RMK A01 T03520129  RH  026%=      5-min Rain = 0
KTAS 100004Z 17016KT 35/13 A2999 RMK A01 T03510129  RH  026%=      5-min Rain = 0
KTAS 100005Z 17015KT 35/13 A2999 RMK A01 T03510128  RH  026%=      5-min Rain = 0
KTAS 100006Z 16013G18KT 35/13 A2999 RMK A01 T03510131  RH  027%=      5-min Rain = 0
KTAS 100007Z 16015KT 35/13 A2999 RMK A01 T03500129  RH  026%=      5-min Rain = 0
KTAS 100008Z 15011KT 35/13 A2999 RMK A01 T03500127  RH  026%=      5-min Rain = 0
KTAS 100009Z 16013KT 35/13 A2999 RMK A01 T03500129  RH  026%=      5-min Rain = 0
KTAS 100010Z 17013KT 35/13 A2999 RMK A01 T03500131  RH  027%=      5-min Rain = 0
KTAS 100011Z 17012KT 35/13 A2999 RMK A01 T03490133  RH  027%=      5-min Rain = 0
KTAS 100012Z 17011KT 35/13 A2999 RMK A01 T03490134  RH  027%=      5-min Rain = 0
KTAS 100013Z 16013KT 35/13 A2999 RMK A01 T03500133  RH  027%=      5-min Rain = 0
KTAS 100014Z 17014KT 35/13 A2999 RMK A01 T03500132  RH  027%=      5-min Rain = 0
KTAS 100015Z 17014KT 35/13 A2999 RMK A01 T03490131  RH  027%=      5-min Rain = 0
KTAS 100016Z 17012KT 35/13 A2999 RMK A01 T03490131  RH  027%=      5-min Rain = 0
KTAS 100017Z 17014KT 35/13 A2999 RMK A01 T03490132  RH  027%=      5-min Rain = 0
KTAS 100018Z 16013KT 35/13 A2999 RMK A01 T03490133  RH  027%=      5-min Rain = 0
KTAS 100019Z 17016G22KT 35/13 A2999 RMK A01 T03480133  RH  028%=      5-min Rain = 0
KTAS 100020Z 17017KT 35/13 A2999 RMK A01 T03470132  RH  027%=      5-min Rain = 0
KTAS 100021Z 17017KT 35/13 A2999 RMK A01 T03470133  RH  028%=      5-min Rain = 0
KTAS 100022Z 17014KT 35/13 A2999 RMK A01 T03470133  RH  028%=      5-min Rain = 0
KTAS 100023Z 17013KT 35/13 A2999 RMK A01 T03460134  RH  028%=      5-min Rain = 0
KTAS 100024Z 17014KT 35/14 A2999 RMK A01 T03470135  RH  028%=      5-min Rain = 0
KTAS 100025Z 17017KT 35/13 A2999 RMK A01 T03460129  RH  027%=      5-min Rain = 0
KTAS 100026Z 17013KT 35/13 A2999 RMK A01 T03460130  RH  027%=      5-min Rain = 0
KTAS 100027Z 18014KT 35/13 A2999 RMK A01 T03460131  RH  027%=      5-min Rain = 0
KTAS 100028Z 18015KT 35/13 A2999 RMK A01 T03460131  RH  027%=      5-min Rain = 0
KTAS 100029Z 18015KT 35/13 A2999 RMK A01 T03460130  RH  027%=      5-min Rain = 0
KTAS 100030Z 17015KT 35/13 A2999 RMK A01 T03460129  RH  027%=      5-min Rain = 0
KTAS 100031Z 17013KT 35/13 A2999 RMK A01 T03460130  RH  027%=      5-min Rain = 0
KTAS 100032Z 16014KT 35/13 A2999 RMK A01 T03450132  RH  028%=      5-min Rain = 0
KTAS 100033Z 17013KT 34/13 A2999 RMK A01 T03440133  RH  028%=      5-min Rain = 0
KTAS 100034Z 17013KT 34/13 A2999 RMK A01 T03440133  RH  028%=      5-min Rain = 0
KTAS 100035Z 16014KT 34/13 A2999 RMK A01 T03430132  RH  028%=      5-min Rain = 0
KTAS 100036Z 16015KT 34/13 A2999 RMK A01 T03430131  RH  028%=      5-min Rain = 0
KTAS 100037Z 17015KT 34/13 A2999 RMK A01 T03430132  RH  028%=      5-min Rain = 0
KTAS 100038Z 16013G20KT 34/13 A2999 RMK A01 T03430134  RH  028%=      5-min Rain = 0
KTAS 100039Z 17016KT 34/13 A2999 RMK A01 T03420132  RH  028%=      5-min Rain = 0
KTAS 100040Z 17016KT 34/13 A2999 RMK A01 T03420132  RH  028%=      5-min Rain = 0
KTAS 100041Z 17015KT 34/13 A2999 RMK A01 T03420132  RH  028%=      5-min Rain = 0
KTAS 100042Z 16015KT 34/13 A2999 RMK A01 T03410131  RH  028%=      5-min Rain = 0
KTAS 100043Z 17013KT 34/13 A2999 RMK A01 T03410132  RH  028%=      5-min Rain = 0
KTAS 100044Z 17015G20KT 34/13 A2999 RMK A01 T03410133  RH  028%=      5-min Rain = 0
KTAS 100045Z 17014KT 34/13 A2999 RMK A01 T03400134  RH  029%=      5-min Rain = 0
KTAS 100046Z 17015KT 34/13 A2999 RMK A01 T03400134  RH  029%=      5-min Rain = 0
KTAS 100047Z 17011KT 34/14 A2999 RMK A01 T03400136  RH  029%=      5-min Rain = 0
KTAS 100048Z 17012KT 34/14 A2999 RMK A01 T03390137  RH  030%=      5-min Rain = 0
KTAS 100049Z 17011KT 34/14 A2999 RMK A01 T03370137  RH  030%=      5-min Rain = 0
KTAS 100050Z 18012KT 34/14 A2999 RMK A01 T03360136  RH  030%=      5-min Rain = 0
KTAS 100051Z 17011KT 34/14 A30 RMK A01 T03350137  RH  030%=      5-min Rain = 0
KTAS 100052Z 17013KT 33/14 A30 RMK A01 T03340137  RH  031%=      5-min Rain = 0
KTAS 100053Z 17013KT 33/14 A30 RMK A01 T03330136  RH  031%=      5-min Rain = 0
KTAS 100054Z 17015KT 33/14 A30 RMK A01 T03320136  RH  031%=      5-min Rain = 0
KTAS 100055Z 17013KT 33/14 A30 RMK A01 T03320135  RH  030%=      5-min Rain = 0
KTAS 100056Z 17012KT 33/14 A30 RMK A01 T03330136  RH  031%=      5-min Rain = 0
KTAS 100057Z 17011KT 33/14 A30 RMK A01 T03330138  RH  031%=      5-min Rain = 0
KTAS 100058Z 17012KT 33/14 A30 RMK A01 T03320137  RH  031%=      5-min Rain = 0
KTAS 100059Z 17011G16KT 33/14 A30 RMK A01 T03310136  RH  031%=      5-min Rain = 0
KTAS 100100Z 17014KT 33/13 A30 RMK A01 T03310134  RH  030%=      5-min Rain = 0
KTAS 100101Z 17012KT 33/13 A30 RMK A01 T03320134  RH  030%=      5-min Rain = 0
KTAS 100102Z 17013KT 33/13 A30 RMK A01 T03310134  RH  030%=      5-min Rain = 0
KTAS 100103Z 17012G17KT 33/13 A30 RMK A01 T03310134  RH  030%=      5-min Rain = 0
KTAS 100104Z 17010KT 33/14 A30 RMK A01 T03300135  RH  031%=      5-min Rain = 0
KTAS 100105Z 17011KT 33/14 A30 RMK A01 T03290137  RH  031%=      5-min Rain = 0
KTAS 100106Z 18010KT 33/14 A30 RMK A01 T03280138  RH  032%=      5-min Rain = 0
KTAS 100107Z 17011KT 33/14 A30 RMK A01 T03270138  RH  032%=      5-min Rain = 0
KTAS 100108Z 17012KT 33/14 A30 RMK A01 T03260137  RH  032%=      5-min Rain = 0
KTAS 100109Z 17012KT 33/14 A30 RMK A01 T03260136  RH  032%=      5-min Rain = 0
KTAS 100110Z 17013KT 33/14 A30 RMK A01 T03260135  RH  031%=      5-min Rain = 0
KTAS 100111Z 17013G18KT 33/14 A30 RMK A01 T03270135  RH  031%=      5-min Rain = 0
KTAS 100112Z 17012KT 33/14 A30 RMK A01 T03270135  RH  031%=      5-min Rain = 0
KTAS 100113Z 17010KT 33/14 A30 RMK A01 T03270137  RH  032%=      5-min Rain = 0
KTAS 100114Z 17009KT 33/14 A30 RMK A01 T03260138  RH  032%=      5-min Rain = 0
KTAS 100115Z 17011KT 33/14 A30 RMK A01 T03250137  RH  032%=      5-min Rain = 0
KTAS 100116Z 17010KT 32/14 A30 RMK A01 T03240137  RH  032%=      5-min Rain = 0
KTAS 100117Z 17011KT 32/14 A30 RMK A01 T03230136  RH  032%=      5-min Rain = 0
KTAS 100118Z 18010KT 32/14 A30 RMK A01 T03230136  RH  032%=      5-min Rain = 0
KTAS 100119Z 17011KT 32/14 A30 RMK A01 T03230136  RH  032%=      5-min Rain = 0
KTAS 100120Z 17011KT 32/14 A30 RMK A01 T03230135  RH  032%=      5-min Rain = 0
KTAS 100121Z 17011G16KT 32/14 A30 RMK A01 T03230136  RH  032%=      5-min Rain = 0
KTAS 100122Z 17013KT 32/14 A30 RMK A01 T03230135  RH  032%=      5-min Rain = 0
KTAS 100123Z 17011KT 32/14 A30 RMK A01 T03230136  RH  032%=      5-min Rain = 0
KTAS 100124Z 18011G16KT 32/14 A30 RMK A01 T03230136  RH  032%=      5-min Rain = 0
KTAS 100125Z 17011KT 32/14 A30 RMK A01 T03230136  RH  032%=      5-min Rain = 0
KTAS 100126Z 17012KT 32/14 A30 RMK A01 T03230135  RH  032%=      5-min Rain = 0
KTAS 100127Z 17011KT 32/14 A30 RMK A01 T03230135  RH  032%=      5-min Rain = 0
KTAS 100128Z 17013KT 32/14 A30 RMK A01 T03220136  RH  032%=      5-min Rain = 0
KTAS 100129Z 17011KT 32/14 A3001 RMK A01 T03220136  RH  032%=      5-min Rain = 0
KTAS 100130Z 18013KT 32/14 A3001 RMK A01 T03220136  RH  032%=      5-min Rain = 0
KTAS 100131Z 18011KT 32/14 A3001 RMK A01 T03220135  RH  032%=      5-min Rain = 0
KTAS 100132Z 17011G16KT 32/14 A3001 RMK A01 T03210135  RH  032%=      5-min Rain = 0
KTAS 100133Z 17012KT 32/13 A3001 RMK A01 T03210134  RH  032%=      5-min Rain = 0
KTAS 100134Z 18012KT 32/13 A3001 RMK A01 T03220134  RH  032%=      5-min Rain = 0
KTAS 100135Z 17012KT 32/13 A3001 RMK A01 T03220134  RH  032%=      5-min Rain = 0
KTAS 100136Z 18012KT 32/13 A3001 RMK A01 T03220134  RH  032%=      5-min Rain = 0
KTAS 100137Z 17011KT 32/13 A3001 RMK A01 T03220134  RH  032%=      5-min Rain = 0
KTAS 100138Z 18011KT 32/13 A3001 RMK A01 T03210134  RH  032%=      5-min Rain = 0
KTAS 100139Z 18014KT 32/13 A3001 RMK A01 T03210133  RH  032%=      5-min Rain = 0
KTAS 100140Z 18011KT 32/13 A3001 RMK A01 T03220133  RH  032%=      5-min Rain = 0
KTAS 100141Z 17012KT 32/13 A3001 RMK A01 T03210133  RH  032%=      5-min Rain = 0
KTAS 100142Z 17012KT 32/13 A3001 RMK A01 T03210133  RH  032%=      5-min Rain = 0
KTAS 100143Z 17010KT 32/13 A3001 RMK A01 T03210133  RH  032%=      5-min Rain = 0
KTAS 100144Z 18011KT 32/13 A3001 RMK A01 T03210134  RH  032%=      5-min Rain = 0
KTAS 100145Z 17010KT 32/13 A3001 RMK A01 T03200134  RH  032%=      5-min Rain = 0
KTAS 100146Z 17011KT 32/13 A3001 RMK A01 T03200134  RH  032%=      5-min Rain = 0
KTAS 100147Z 18011KT 32/13 A3001 RMK A01 T03190134  RH  032%=      5-min Rain = 0
KTAS 100148Z 17010KT 32/13 A3001 RMK A01 T03180134  RH  033%=      5-min Rain = 0
KTAS 100149Z 17011KT 32/13 A3001 RMK A01 T03180134  RH  033%=      5-min Rain = 0
KTAS 100150Z 17012KT 32/13 A3001 RMK A01 T03180134  RH  033%=      5-min Rain = 0
KTAS 100151Z 17009KT 32/13 A3001 RMK A01 T03180134  RH  033%=      5-min Rain = 0
KTAS 100152Z 17010KT 32/14 A3001 RMK A01 T03170135  RH  033%=      5-min Rain = 0
KTAS 100153Z 17010KT 32/14 A3001 RMK A01 T03160135  RH  033%=      5-min Rain = 0
KTAS 100154Z 17009KT 32/14 A3001 RMK A01 T03160135  RH  033%=      5-min Rain = 0
KTAS 100155Z 17010KT 32/14 A3001 RMK A01 T03150136  RH  034%=      5-min Rain = 0
KTAS 100156Z 17011KT 31/14 A3001 RMK A01 T03140136  RH  034%=      5-min Rain = 0
KTAS 100157Z 17010KT 31/14 A3001 RMK A01 T03140136  RH  034%=      5-min Rain = 0
KTAS 100158Z 17010KT 31/14 A3001 RMK A01 T03140136  RH  034%=      5-min Rain = 0
KTAS 100159Z 17009KT 31/14 A3002 RMK A01 T03130137  RH  034%=      5-min Rain = 0
KTAS 100200Z 17010KT 31/14 A3002 RMK A01 T03130137  RH  034%=      5-min Rain = 0
KTAS 100201Z 17010KT 31/14 A3002 RMK A01 T03120137  RH  034%=      5-min Rain = 0
KTAS 100202Z 17010KT 31/14 A3002 RMK A01 T03120137  RH  034%=      5-min Rain = 0
KTAS 100203Z 17009KT 31/14 A3002 RMK A01 T03120137  RH  034%=      5-min Rain = 0
KTAS 100204Z 17009KT 31/14 A3002 RMK A01 T03110137  RH  035%=      5-min Rain = 0
KTAS 100205Z 17008KT 31/14 A3002 RMK A01 T03110136  RH  035%=      5-min Rain = 0
KTAS 100206Z 17009KT 31/14 A3002 RMK A01 T03110137  RH  035%=      5-min Rain = 0
KTAS 100207Z 17011KT 31/14 A3002 RMK A01 T03100136  RH  035%=      5-min Rain = 0
KTAS 100208Z 17010KT 31/14 A3002 RMK A01 T03110136  RH  034%=      5-min Rain = 0
KTAS 100209Z 17010KT 31/14 A3002 RMK A01 T03110136  RH  034%=      5-min Rain = 0
KTAS 100210Z 17009KT 31/14 A3002 RMK A01 T03110137  RH  035%=      5-min Rain = 0
KTAS 100211Z 17010KT 31/14 A3002 RMK A01 T03100137  RH  035%=      5-min Rain = 0
KTAS 100212Z 17009KT 31/14 A3002 RMK A01 T03090137  RH  035%=      5-min Rain = 0
KTAS 100213Z 17009KT 31/14 A3002 RMK A01 T03080137  RH  035%=      5-min Rain = 0
KTAS 100214Z 17009KT 31/14 A3002 RMK A01 T03080137  RH  035%=      5-min Rain = 0
KTAS 100215Z 17009KT 31/14 A3002 RMK A01 T03070137  RH  036%=      5-min Rain = 0
KTAS 100216Z 17008KT 31/14 A3002 RMK A01 T03060137  RH  036%=      5-min Rain = 0
KTAS 100217Z 17009KT 31/14 A3002 RMK A01 T03060137  RH  036%=      5-min Rain = 0
KTAS 100218Z 17010KT 31/14 A3002 RMK A01 T03060137  RH  036%=      5-min Rain = 0
KTAS 100219Z 17009KT 31/14 A3002 RMK A01 T03060138  RH  036%=      5-min Rain = 0
KTAS 100220Z 17010KT 31/14 A3002 RMK A01 T03060137  RH  036%=      5-min Rain = 0
KTAS 100221Z 17009KT 31/14 A3002 RMK A01 T03060137  RH  036%=      5-min Rain = 0
KTAS 100222Z 17010KT 31/14 A3002 RMK A01 T03060137  RH  036%=      5-min Rain = 0
KTAS 100223Z 17009KT 31/14 A3002 RMK A01 T03060137  RH  036%=      5-min Rain = 0
KTAS 100224Z 17010KT 31/14 A3002 RMK A01 T03070137  RH  035%=      5-min Rain = 0
KTAS 100225Z 17010KT 31/14 A3002 RMK A01 T03070137  RH  035%=      5-min Rain = 0
KTAS 100226Z 17010KT 31/14 A3002 RMK A01 T03070138  RH  036%=      5-min Rain = 0
KTAS 100227Z 17010KT 31/14 A3002 RMK A01 T03070138  RH  036%=      5-min Rain = 0
KTAS 100228Z 17009KT 31/14 A3002 RMK A01 T03060138  RH  036%=      5-min Rain = 0
KTAS 100229Z 17009KT 31/14 A3002 RMK A01 T03060139  RH  036%=      5-min Rain = 0
KTAS 100230Z 17010KT 31/14 A3002 RMK A01 T03050139  RH  036%=      5-min Rain = 0
KTAS 100231Z 18010KT 31/14 A3002 RMK A01 T03050139  RH  036%=      5-min Rain = 0
KTAS 100232Z 18010KT 31/14 A3002 RMK A01 T03050138  RH  036%=      5-min Rain = 0
KTAS 100233Z 17010KT 31/14 A3003 RMK A01 T03050138  RH  036%=      5-min Rain = 0
KTAS 100234Z 18010KT 31/14 A3003 RMK A01 T03050138  RH  036%=      5-min Rain = 0
KTAS 100235Z 18009G14KT 31/14 A3003 RMK A01 T03060138  RH  036%=      5-min Rain = 0
KTAS 100236Z 17011KT 31/14 A3003 RMK A01 T03060138  RH  036%=      5-min Rain = 0
KTAS 100237Z 18011KT 31/14 A3003 RMK A01 T03060138  RH  036%=      5-min Rain = 0
KTAS 100238Z 17011KT 31/14 A3003 RMK A01 T03060138  RH  036%=      5-min Rain = 0
KTAS 100239Z 17012KT 31/14 A3003 RMK A01 T03070138  RH  036%=      5-min Rain = 0
KTAS 100240Z 17010KT 31/14 A3003 RMK A01 T03070138  RH  036%=      5-min Rain = 0
KTAS 100241Z 17011KT 31/14 A3003 RMK A01 T03060138  RH  036%=      5-min Rain = 0
KTAS 100242Z 17009KT 31/14 A3003 RMK A01 T03070138  RH  036%=      5-min Rain = 0
KTAS 100243Z 17011KT 31/14 A3003 RMK A01 T03060139  RH  036%=      5-min Rain = 0
KTAS 100244Z 17011KT 31/14 A3003 RMK A01 T03060138  RH  036%=      5-min Rain = 0
KTAS 100245Z 17009KT 31/14 A3003 RMK A01 T03050139  RH  036%=      5-min Rain = 0
KTAS 100246Z 17009KT 30/14 A3003 RMK A01 T03040139  RH  037%=      5-min Rain = 0
KTAS 100247Z 17010KT 30/14 A3003 RMK A01 T03030139  RH  037%=      5-min Rain = 0
KTAS 100248Z 17010KT 30/14 A3003 RMK A01 T03030140  RH  037%=      5-min Rain = 0
KTAS 100249Z 17010KT 30/14 A3003 RMK A01 T03030139  RH  037%=      5-min Rain = 0
KTAS 100250Z 17009KT 30/14 A3003 RMK A01 T03030139  RH  037%=      5-min Rain = 0
KTAS 100251Z 17009KT 30/14 A3003 RMK A01 T03030139  RH  037%=      5-min Rain = 0
KTAS 100252Z 17009KT 30/14 A3003 RMK A01 T03020139  RH  037%=      5-min Rain = 0
KTAS 100253Z 17010KT 30/14 A3003 RMK A01 T03020139  RH  037%=      5-min Rain = 0
KTAS 100254Z 17009KT 30/14 A3003 RMK A01 T03010139  RH  037%=      5-min Rain = 0
KTAS 100255Z 17010KT 30/14 A3003 RMK A01 T03010138  RH  037%=      5-min Rain = 0
KTAS 100256Z 17009KT 30/14 A3003 RMK A01 T03010138  RH  037%=      5-min Rain = 0
KTAS 100257Z 17010KT 30/14 A3004 RMK A01 T03010138  RH  037%=      5-min Rain = 0
KTAS 100258Z 17012KT 30/14 A3004 RMK A01 T03010138  RH  037%=      5-min Rain = 0
KTAS 100259Z 17012KT 30/14 A3004 RMK A01 T03020137  RH  037%=      5-min Rain = 0
KTAS 100300Z 17011KT 30/14 A3004 RMK A01 T03030138  RH  036%=      5-min Rain = 0
KTAS 100301Z 17010KT 30/14 A3004 RMK A01 T03030138  RH  036%=      5-min Rain = 0
KTAS 100302Z 17011KT 30/14 A3004 RMK A01 T03030138  RH  037%=      5-min Rain = 0
KTAS 100303Z 17011KT 30/14 A3004 RMK A01 T03020138  RH  037%=      5-min Rain = 0
KTAS 100304Z 16010KT 30/14 A3004 RMK A01 T03020138  RH  037%=      5-min Rain = 0
KTAS 100305Z 17011KT 30/14 A3004 RMK A01 T03020138  RH  037%=      5-min Rain = 0
KTAS 100306Z 17010KT 30/14 A3004 RMK A01 T03010138  RH  037%=      5-min Rain = 0
KTAS 100307Z 17009KT 30/14 A3004 RMK A01 T03010139  RH  037%=      5-min Rain = 0
KTAS 100308Z 17012KT 30/14 A3004 RMK A01 T03000139  RH  037%=      5-min Rain = 0
KTAS 100309Z 16011KT 30/14 A3004 RMK A01 T03000139  RH  037%=      5-min Rain = 0
KTAS 100310Z 16010KT 30/14 A3004 RMK A01 T02990139  RH  038%=      5-min Rain = 0
KTAS 100311Z 16010KT 30/14 A3004 RMK A01 T02990139  RH  038%=      5-min Rain = 0
KTAS 100312Z 16011KT 30/14 A3004 RMK A01 T02980139  RH  038%=      5-min Rain = 0
KTAS 100313Z 16010KT 30/14 A3004 RMK A01 T02970139  RH  038%=      5-min Rain = 0
KTAS 100314Z 17011KT 30/14 A3004 RMK A01 T02970139  RH  038%=      5-min Rain = 0
KTAS 100315Z 16011KT 30/14 A3004 RMK A01 T02970138  RH  038%=      5-min Rain = 0
KTAS 100316Z 16010KT 30/14 A3004 RMK A01 T02970139  RH  038%=      5-min Rain = 0
KTAS 100317Z 16009KT 30/14 A3004 RMK A01 T02970139  RH  038%=      5-min Rain = 0
KTAS 100318Z 16009KT 30/14 A3004 RMK A01 T02960139  RH  038%=      5-min Rain = 0
KTAS 100319Z 16009KT 30/14 A3004 RMK A01 T02960139  RH  038%=      5-min Rain = 0
KTAS 100320Z 16011KT 30/14 A3004 RMK A01 T02960138  RH  038%=      5-min Rain = 0
KTAS 100321Z 17010KT 30/14 A3005 RMK A01 T02970138  RH  038%=      5-min Rain = 0
KTAS 100322Z 17009KT 30/14 A3005 RMK A01 T02970139  RH  038%=      5-min Rain = 0
KTAS 100323Z 17008KT 30/14 A3005 RMK A01 T02970139  RH  038%=      5-min Rain = 0
KTAS 100324Z 17010KT 30/14 A3005 RMK A01 T02960138  RH  038%=      5-min Rain = 0
KTAS 100325Z 17008KT 30/14 A3005 RMK A01 T02970138  RH  038%=      5-min Rain = 0
KTAS 100326Z 17009KT 30/14 A3005 RMK A01 T02960139  RH  038%=      5-min Rain = 0
KTAS 100327Z 18010KT 30/14 A3005 RMK A01 T02960138  RH  038%=      5-min Rain = 0
KTAS 100328Z 18008KT 30/14 A3005 RMK A01 T02970138  RH  038%=      5-min Rain = 0
KTAS 100329Z 18009KT 30/14 A3006 RMK A01 T02970138  RH  038%=      5-min Rain = 0
KTAS 100330Z 19008KT 30/14 A3006 RMK A01 T02970137  RH  038%=      5-min Rain = 0
KTAS 100331Z 19007KT 30/14 A3006 RMK A01 T02960138  RH  038%=      5-min Rain = 0
KTAS 100332Z 20006KT 30/14 A3006 RMK A01 T02950138  RH  038%=      5-min Rain = 0
KTAS 100333Z 19006KT 29/14 A3006 RMK A01 T02940138  RH  038%=      5-min Rain = 0
KTAS 100334Z 19007KT 29/14 A3006 RMK A01 T02930137  RH  038%=      5-min Rain = 0
KTAS 100335Z 20006KT 29/14 A3006 RMK A01 T02940137  RH  038%=      5-min Rain = 0
KTAS 100336Z 22005KT 29/14 A3006 RMK A01 T02930136  RH  038%=      5-min Rain = 0
KTAS 100337Z 22006KT 29/14 A3007 RMK A01 T02930136  RH  038%=      5-min Rain = 0
KTAS 100338Z 22006KT 29/14 A3007 RMK A01 T02930136  RH  038%=      5-min Rain = 0
KTAS 100339Z 23006KT 29/14 A3007 RMK A01 T02930136  RH  038%=      5-min Rain = 0
KTAS 100340Z 23006KT 29/14 A3007 RMK A01 T02920136  RH  038%=      5-min Rain = 0
KTAS 100341Z 24006KT 29/14 A3007 RMK A01 T02910137  RH  039%=      5-min Rain = 0
KTAS 100342Z 25006KT 29/14 A3007 RMK A01 T02900137  RH  039%=      5-min Rain = 0
KTAS 100343Z 27006KT 29/14 A3007 RMK A01 T02890138  RH  040%=      5-min Rain = 0
KTAS 100344Z 28007KT 29/14 A3007 RMK A01 T02880140  RH  040%=      5-min Rain = 0
KTAS 100345Z 28008KT 29/14 A3007 RMK A01 T02850142  RH  041%=      5-min Rain = 0
KTAS 100346Z 28007KT 28/14 A3007 RMK A01 T02840142  RH  042%=      5-min Rain = 0
KTAS 100347Z 28007KT 28/14 A3007 RMK A01 T02820141  RH  042%=      5-min Rain = 0
KTAS 100348Z 28007KT 28/14 A3007 RMK A01 T02820140  RH  042%=      5-min Rain = 0
KTAS 100349Z 28006KT 28/14 A3007 RMK A01 T02830139  RH  041%=      5-min Rain = 0
KTAS 100350Z 28006KT 28/14 A3007 RMK A01 T02830139  RH  041%=      5-min Rain = 0
KTAS 100351Z 30005KT 28/14 A3007 RMK A01 T02830139  RH  041%=      5-min Rain = 0
KTAS 100352Z 30006KT 28/14 A3008 RMK A01 T02830138  RH  041%=      5-min Rain = 0
KTAS 100353Z 30007KT 28/14 A3008 RMK A01 T02840139  RH  041%=      5-min Rain = 0
KTAS 100354Z 31008KT 29/14 A3008 RMK A01 T02870139  RH  040%=      5-min Rain = 0
KTAS 100355Z 29005KT 29/14 A3008 RMK A01 T02900140  RH  040%=      5-min Rain = 0
KTAS 100356Z 27004KT 29/14 A3008 RMK A01 T02900139  RH  040%=      5-min Rain = 0
KTAS 100357Z 28004KT 29/14 A3008 RMK A01 T02900140  RH  040%=      5-min Rain = 0
KTAS 100358Z 29005KT 29/14 A3008 RMK A01 T02890140  RH  040%=      5-min Rain = 0
KTAS 100359Z 29005KT 29/14 A3007 RMK A01 T02890140  RH  040%=      5-min Rain = 0
KTAS 100400Z 30006KT 29/14 A3007 RMK A01 T02880140  RH  040%=      5-min Rain = 0
KTAS 100401Z 29004KT 29/14 A3007 RMK A01 T02870140  RH  041%=      5-min Rain = 0
KTAS 100402Z 27003KT 29/14 A3007 RMK A01 T02860140  RH  041%=      5-min Rain = 0
KTAS 100403Z 25006KT 29/14 A3007 RMK A01 T02870138  RH  040%=      5-min Rain = 0
KTAS 100404Z 24004KT 29/14 A3007 RMK A01 T02920135  RH  038%=      5-min Rain = 0
KTAS 100405Z 26005KT 30/14 A3007 RMK A01 T02950138  RH  038%=      5-min Rain = 0
KTAS 100406Z 29006KT 29/14 A3007 RMK A01 T02940139  RH  039%=      5-min Rain = 0
KTAS 100407Z 25006KT 29/14 A3007 RMK A01 T02920139  RH  039%=      5-min Rain = 0
KTAS 100408Z 23009KT 29/14 A3007 RMK A01 T02920137  RH  039%=      5-min Rain = 0
KTAS 100409Z 22006KT 30/14 A3007 RMK A01 T02970135  RH  037%=      5-min Rain = 0
KTAS 100410Z 23008KT 30/14 A3008 RMK A01 T03000136  RH  037%=      5-min Rain = 0
KTAS 100411Z 26006KT 30/14 A3008 RMK A01 T02990137  RH  037%=      5-min Rain = 0
KTAS 100412Z 29005KT 30/14 A3008 RMK A01 T02990137  RH  037%=      5-min Rain = 0
KTAS 100413Z 29005KT 30/14 A3008 RMK A01 T02980138  RH  038%=      5-min Rain = 0
KTAS 100414Z 30004KT 30/14 A3008 RMK A01 T02960138  RH  038%=      5-min Rain = 0
KTAS 100415Z 30005KT 29/14 A3008 RMK A01 T02940138  RH  038%=      5-min Rain = 0
KTAS 100416Z 30006KT 29/14 A3008 RMK A01 T02930139  RH  039%=      5-min Rain = 0
KTAS 100417Z 30005KT 29/14 A3008 RMK A01 T02910139  RH  039%=      5-min Rain = 0
KTAS 100418Z 31004KT 29/14 A3008 RMK A01 T02900139  RH  040%=      5-min Rain = 0
KTAS 100419Z 32006KT 29/14 A3008 RMK A01 T02890141  RH  040%=      5-min Rain = 0
KTAS 100420Z 32006KT 29/14 A3008 RMK A01 T02850143  RH  042%=      5-min Rain = 0
KTAS 100421Z 31006KT 28/14 A3008 RMK A01 T02820144  RH  043%=      5-min Rain = 0
KTAS 100422Z 32008KT 28/15 A3008 RMK A01 T02800145  RH  044%=      5-min Rain = 0
KTAS 100423Z 32008KT 28/15 A3008 RMK A01 T02780146  RH  044%=      5-min Rain = 0
KTAS 100424Z 33006KT 28/15 A3008 RMK A01 T02770146  RH  045%=      5-min Rain = 0
KTAS 100425Z 32007KT 28/15 A3008 RMK A01 T02750146  RH  045%=      5-min Rain = 0
KTAS 100426Z 33007KT 27/15 A3008 RMK A01 T02730146  RH  046%=      5-min Rain = 0
KTAS 100427Z 32005KT 27/15 A3008 RMK A01 T02720147  RH  046%=      5-min Rain = 0
KTAS 100428Z 33003KT 27/15 A3008 RMK A01 T02710147  RH  047%=      5-min Rain = 0
KTAS 100429Z 33003KT 27/15 A3008 RMK A01 T02710147  RH  047%=      5-min Rain = 0
KTAS 100430Z 32005KT 27/15 A3008 RMK A01 T02700147  RH  047%=      5-min Rain = 0
KTAS 100431Z 33007KT 27/15 A3008 RMK A01 T02690147  RH  047%=      5-min Rain = 0
KTAS 100432Z 32006KT 27/15 A3008 RMK A01 T02670147  RH  048%=      5-min Rain = 0
KTAS 100433Z 32005KT 27/15 A3008 RMK A01 T02670147  RH  048%=      5-min Rain = 0
KTAS 100434Z 31006KT 27/15 A3008 RMK A01 T02670147  RH  048%=      5-min Rain = 0
KTAS 100435Z 31008KT 27/15 A3008 RMK A01 T02670148  RH  048%=      5-min Rain = 0
KTAS 100436Z 30006KT 27/15 A3008 RMK A01 T02670148  RH  048%=      5-min Rain = 0
KTAS 100437Z 31006KT 27/15 A3008 RMK A01 T02660148  RH  048%=      5-min Rain = 0
KTAS 100438Z 30005KT 27/15 A3008 RMK A01 T02660148  RH  048%=      5-min Rain = 0
KTAS 100439Z 32006KT 27/15 A3008 RMK A01 T02650148  RH  048%=      5-min Rain = 0
KTAS 100440Z 32005KT 27/15 A3008 RMK A01 T02650148  RH  048%=      5-min Rain = 0
KTAS 100441Z 31008KT 27/15 A3008 RMK A01 T02650148  RH  049%=      5-min Rain = 0
KTAS 100442Z 30007KT 26/15 A3008 RMK A01 T02640149  RH  049%=      5-min Rain = 0
KTAS 100443Z 32006KT 26/15 A3008 RMK A01 T02640149  RH  049%=      5-min Rain = 0
KTAS 100444Z 32007KT 26/15 A3008 RMK A01 T02640149  RH  049%=      5-min Rain = 0
KTAS 100445Z 33008KT 26/15 A3008 RMK A01 T02630149  RH  050%=      5-min Rain = 0
KTAS 100446Z 33007KT 26/15 A3008 RMK A01 T02620150  RH  050%=      5-min Rain = 0
KTAS 100447Z 32006KT 26/15 A3008 RMK A01 T02610150  RH  050%=      5-min Rain = 0
KTAS 100448Z 32005KT 26/15 A3008 RMK A01 T02610150  RH  050%=      5-min Rain = 0
KTAS 100449Z 31005KT 26/15 A3008 RMK A01 T02600150  RH  051%=      5-min Rain = 0
KTAS 100450Z 31005KT 26/15 A3008 RMK A01 T02590150  RH  051%=      5-min Rain = 0
KTAS 100451Z 31005KT 26/15 A3008 RMK A01 T02570150  RH  051%=      5-min Rain = 0
KTAS 100452Z 32004KT 26/15 A3008 RMK A01 T02570149  RH  052%=      5-min Rain = 0
KTAS 100453Z 31004KT 26/15 A3008 RMK A01 T02570150  RH  051%=      5-min Rain = 0
KTAS 100454Z 32005KT 26/15 A3008 RMK A01 T02570149  RH  052%=      5-min Rain = 0
KTAS 100455Z 32006KT 26/15 A3008 RMK A01 T02550149  RH  052%=      5-min Rain = 0
KTAS 100456Z 32006KT 25/15 A3008 RMK A01 T02530149  RH  052%=      5-min Rain = 0
KTAS 100457Z 32005KT 25/15 A3008 RMK A01 T02510148  RH  053%=      5-min Rain = 0
KTAS 100458Z 32005KT 25/15 A3008 RMK A01 T02500148  RH  053%=      5-min Rain = 0
KTAS 100459Z 32005KT 25/15 A3008 RMK A01 T02490148  RH  053%=      5-min Rain = 0

Page generated in 0.0709 seconds.